<?xml version="1.0" encoding="UTF-8" standalone="no" ?>
<gpx xmlns="http://www.topografix.com/GPX/1/1" xmlns:xsi="http://www.w3.org/2001/XMLSchema-instance" xsi:schemaLocation="http://www.topografix.com/GPX/1/1 http://www.topografix.com/GPX/1/1/gpx.xsd" version="1.1" creator="VisuGPX - https://www.visugpx.com">
  <metadata>
    <name>Course à pied dans l'après-midi</name>
  </metadata>
  <trk>
    <name><![CDATA[Course à pied dans l'après-midi_1]]></name>
    <trkseg>
      <trkpt lat="48.60558" lon="7.10918">
        <ele>443.9</ele>
        <time>2023-10-14T12:08:43Z</time>
      </trkpt>
      <trkpt lat="48.60557" lon="7.10919">
        <ele>443.9</ele>
        <time>2023-10-14T12:08:44Z</time>
      </trkpt>
      <trkpt lat="48.60555" lon="7.10921">
        <ele>444</ele>
        <time>2023-10-14T12:08:46Z</time>
      </trkpt>
      <trkpt lat="48.60547" lon="7.10926">
        <ele>444.1</ele>
        <time>2023-10-14T12:08:50Z</time>
      </trkpt>
      <trkpt lat="48.60528" lon="7.10928">
        <ele>444.6</ele>
        <time>2023-10-14T12:08:57Z</time>
      </trkpt>
      <trkpt lat="48.60506" lon="7.10931">
        <ele>445.5</ele>
        <time>2023-10-14T12:09:03Z</time>
      </trkpt>
      <trkpt lat="48.60487" lon="7.10929">
        <ele>446.2</ele>
        <time>2023-10-14T12:09:09Z</time>
      </trkpt>
      <trkpt lat="48.60475" lon="7.10908">
        <ele>447.1</ele>
        <time>2023-10-14T12:09:16Z</time>
      </trkpt>
      <trkpt lat="48.60464" lon="7.10884">
        <ele>448.4</ele>
        <time>2023-10-14T12:09:24Z</time>
      </trkpt>
      <trkpt lat="48.60448" lon="7.10871">
        <ele>449.9</ele>
        <time>2023-10-14T12:09:33Z</time>
      </trkpt>
      <trkpt lat="48.60432" lon="7.10854">
        <ele>451.4</ele>
        <time>2023-10-14T12:09:45Z</time>
      </trkpt>
      <trkpt lat="48.60417" lon="7.10836">
        <ele>452.7</ele>
        <time>2023-10-14T12:09:55Z</time>
      </trkpt>
      <trkpt lat="48.60402" lon="7.10817">
        <ele>454.4</ele>
        <time>2023-10-14T12:10:03Z</time>
      </trkpt>
      <trkpt lat="48.60389" lon="7.10803">
        <ele>455.7</ele>
        <time>2023-10-14T12:10:11Z</time>
      </trkpt>
      <trkpt lat="48.60376" lon="7.10782">
        <ele>457.3</ele>
        <time>2023-10-14T12:10:21Z</time>
      </trkpt>
      <trkpt lat="48.6036" lon="7.10769">
        <ele>458.7</ele>
        <time>2023-10-14T12:10:30Z</time>
      </trkpt>
      <trkpt lat="48.60342" lon="7.10762">
        <ele>460.1</ele>
        <time>2023-10-14T12:10:42Z</time>
      </trkpt>
      <trkpt lat="48.60324" lon="7.10763">
        <ele>461.8</ele>
        <time>2023-10-14T12:10:52Z</time>
      </trkpt>
      <trkpt lat="48.60303" lon="7.10763">
        <ele>463.8</ele>
        <time>2023-10-14T12:11:01Z</time>
      </trkpt>
      <trkpt lat="48.60286" lon="7.10753">
        <ele>465.6</ele>
        <time>2023-10-14T12:11:11Z</time>
      </trkpt>
      <trkpt lat="48.60269" lon="7.1075">
        <ele>467.1</ele>
        <time>2023-10-14T12:11:22Z</time>
      </trkpt>
      <trkpt lat="48.6025" lon="7.10762">
        <ele>468.8</ele>
        <time>2023-10-14T12:11:35Z</time>
      </trkpt>
      <trkpt lat="48.60233" lon="7.10772">
        <ele>470.5</ele>
        <time>2023-10-14T12:11:47Z</time>
      </trkpt>
      <trkpt lat="48.60213" lon="7.10773">
        <ele>472.5</ele>
        <time>2023-10-14T12:11:55Z</time>
      </trkpt>
      <trkpt lat="48.60195" lon="7.10769">
        <ele>474</ele>
        <time>2023-10-14T12:12:03Z</time>
      </trkpt>
      <trkpt lat="48.60177" lon="7.1077">
        <ele>475.2</ele>
        <time>2023-10-14T12:12:12Z</time>
      </trkpt>
      <trkpt lat="48.6016" lon="7.10761">
        <ele>476.9</ele>
        <time>2023-10-14T12:12:22Z</time>
      </trkpt>
      <trkpt lat="48.60147" lon="7.10739">
        <ele>481</ele>
        <time>2023-10-14T12:12:33Z</time>
      </trkpt>
      <trkpt lat="48.60147" lon="7.10737">
        <ele>481</ele>
        <time>2023-10-14T12:12:34Z</time>
      </trkpt>
      <trkpt lat="48.60146" lon="7.10739">
        <ele>481.1</ele>
        <time>2023-10-14T12:16:04Z</time>
      </trkpt>
      <trkpt lat="48.60136" lon="7.10765">
        <ele>481.3</ele>
        <time>2023-10-14T12:16:12Z</time>
      </trkpt>
      <trkpt lat="48.60129" lon="7.10794">
        <ele>481</ele>
        <time>2023-10-14T12:16:19Z</time>
      </trkpt>
      <trkpt lat="48.60124" lon="7.10822">
        <ele>479.6</ele>
        <time>2023-10-14T12:16:26Z</time>
      </trkpt>
      <trkpt lat="48.60117" lon="7.10854">
        <ele>478.2</ele>
        <time>2023-10-14T12:16:32Z</time>
      </trkpt>
      <trkpt lat="48.6011" lon="7.10879">
        <ele>478.2</ele>
        <time>2023-10-14T12:16:37Z</time>
      </trkpt>
      <trkpt lat="48.60101" lon="7.10904">
        <ele>478</ele>
        <time>2023-10-14T12:16:44Z</time>
      </trkpt>
      <trkpt lat="48.60084" lon="7.10916">
        <ele>476.8</ele>
        <time>2023-10-14T12:16:53Z</time>
      </trkpt>
      <trkpt lat="48.60067" lon="7.10923">
        <ele>475.7</ele>
        <time>2023-10-14T12:17:05Z</time>
      </trkpt>
      <trkpt lat="48.60051" lon="7.1094">
        <ele>474.5</ele>
        <time>2023-10-14T12:17:15Z</time>
      </trkpt>
      <trkpt lat="48.60036" lon="7.10957">
        <ele>473.4</ele>
        <time>2023-10-14T12:17:22Z</time>
      </trkpt>
      <trkpt lat="48.60021" lon="7.10974">
        <ele>472.2</ele>
        <time>2023-10-14T12:17:34Z</time>
      </trkpt>
      <trkpt lat="48.60021" lon="7.10974">
        <ele>472.2</ele>
        <time>2023-10-14T12:17:36Z</time>
      </trkpt>
      <trkpt lat="48.60023" lon="7.10968">
        <ele>471.9</ele>
        <time>2023-10-14T12:17:39Z</time>
      </trkpt>
      <trkpt lat="48.60019" lon="7.10962">
        <ele>471.6</ele>
        <time>2023-10-14T12:17:44Z</time>
      </trkpt>
      <trkpt lat="48.60021" lon="7.10964">
        <ele>471.4</ele>
        <time>2023-10-14T12:17:48Z</time>
      </trkpt>
      <trkpt lat="48.60035" lon="7.10948">
        <ele>472.7</ele>
        <time>2023-10-14T12:17:58Z</time>
      </trkpt>
      <trkpt lat="48.60052" lon="7.10934">
        <ele>474.1</ele>
        <time>2023-10-14T12:18:06Z</time>
      </trkpt>
      <trkpt lat="48.6007" lon="7.10923">
        <ele>475.5</ele>
        <time>2023-10-14T12:18:13Z</time>
      </trkpt>
      <trkpt lat="48.60087" lon="7.10913">
        <ele>476.8</ele>
        <time>2023-10-14T12:18:18Z</time>
      </trkpt>
      <trkpt lat="48.60104" lon="7.10896">
        <ele>478.2</ele>
        <time>2023-10-14T12:18:25Z</time>
      </trkpt>
      <trkpt lat="48.60116" lon="7.10873">
        <ele>478.1</ele>
        <time>2023-10-14T12:18:33Z</time>
      </trkpt>
      <trkpt lat="48.60123" lon="7.10845">
        <ele>478.6</ele>
        <time>2023-10-14T12:18:42Z</time>
      </trkpt>
      <trkpt lat="48.60131" lon="7.10818">
        <ele>480.1</ele>
        <time>2023-10-14T12:18:55Z</time>
      </trkpt>
      <trkpt lat="48.60133" lon="7.10791">
        <ele>481.2</ele>
        <time>2023-10-14T12:19:04Z</time>
      </trkpt>
      <trkpt lat="48.60136" lon="7.10765">
        <ele>481.3</ele>
        <time>2023-10-14T12:19:12Z</time>
      </trkpt>
      <trkpt lat="48.60146" lon="7.10745">
        <ele>481</ele>
        <time>2023-10-14T12:19:18Z</time>
      </trkpt>
      <trkpt lat="48.60147" lon="7.1073">
        <ele>480.9</ele>
        <time>2023-10-14T12:32:46Z</time>
      </trkpt>
      <trkpt lat="48.60157" lon="7.10705">
        <ele>480.7</ele>
        <time>2023-10-14T12:32:53Z</time>
      </trkpt>
      <trkpt lat="48.60168" lon="7.10679">
        <ele>480.4</ele>
        <time>2023-10-14T12:33:00Z</time>
      </trkpt>
      <trkpt lat="48.60181" lon="7.10658">
        <ele>479.8</ele>
        <time>2023-10-14T12:33:06Z</time>
      </trkpt>
      <trkpt lat="48.60194" lon="7.10634">
        <ele>479.3</ele>
        <time>2023-10-14T12:33:13Z</time>
      </trkpt>
      <trkpt lat="48.60205" lon="7.10612">
        <ele>478.8</ele>
        <time>2023-10-14T12:33:20Z</time>
      </trkpt>
      <trkpt lat="48.60216" lon="7.10588">
        <ele>478.4</ele>
        <time>2023-10-14T12:33:27Z</time>
      </trkpt>
      <trkpt lat="48.60222" lon="7.1056">
        <ele>478.2</ele>
        <time>2023-10-14T12:33:34Z</time>
      </trkpt>
      <trkpt lat="48.60229" lon="7.10535">
        <ele>478.7</ele>
        <time>2023-10-14T12:33:43Z</time>
      </trkpt>
      <trkpt lat="48.60231" lon="7.10529">
        <ele>479</ele>
        <time>2023-10-14T12:33:49Z</time>
      </trkpt>
      <trkpt lat="48.60242" lon="7.10508">
        <ele>480.2</ele>
        <time>2023-10-14T12:34:11Z</time>
      </trkpt>
      <trkpt lat="48.60253" lon="7.10486">
        <ele>482</ele>
        <time>2023-10-14T12:34:30Z</time>
      </trkpt>
      <trkpt lat="48.60264" lon="7.10464">
        <ele>483.7</ele>
        <time>2023-10-14T12:34:44Z</time>
      </trkpt>
      <trkpt lat="48.60269" lon="7.10445">
        <ele>484.7</ele>
        <time>2023-10-14T12:34:59Z</time>
      </trkpt>
      <trkpt lat="48.60268" lon="7.1042">
        <ele>485.7</ele>
        <time>2023-10-14T12:35:18Z</time>
      </trkpt>
      <trkpt lat="48.60267" lon="7.10417">
        <ele>485.9</ele>
        <time>2023-10-14T12:35:22Z</time>
      </trkpt>
      <trkpt lat="48.60268" lon="7.10411">
        <ele>486.1</ele>
        <time>2023-10-14T12:35:26Z</time>
      </trkpt>
      <trkpt lat="48.60271" lon="7.10384">
        <ele>487.2</ele>
        <time>2023-10-14T12:35:50Z</time>
      </trkpt>
      <trkpt lat="48.60271" lon="7.10378">
        <ele>487.5</ele>
        <time>2023-10-14T12:35:55Z</time>
      </trkpt>
      <trkpt lat="48.60271" lon="7.10372">
        <ele>487.7</ele>
        <time>2023-10-14T12:36:00Z</time>
      </trkpt>
      <trkpt lat="48.60271" lon="7.10363">
        <ele>488</ele>
        <time>2023-10-14T12:36:06Z</time>
      </trkpt>
      <trkpt lat="48.6028" lon="7.10342">
        <ele>488.8</ele>
        <time>2023-10-14T12:36:34Z</time>
      </trkpt>
      <trkpt lat="48.60284" lon="7.10339">
        <ele>489</ele>
        <time>2023-10-14T12:36:39Z</time>
      </trkpt>
      <trkpt lat="48.603" lon="7.10326">
        <ele>489.8</ele>
        <time>2023-10-14T12:37:08Z</time>
      </trkpt>
      <trkpt lat="48.60317" lon="7.10329">
        <ele>489.6</ele>
        <time>2023-10-14T12:37:33Z</time>
      </trkpt>
      <trkpt lat="48.60326" lon="7.10344">
        <ele>489.2</ele>
        <time>2023-10-14T12:37:48Z</time>
      </trkpt>
      <trkpt lat="48.60331" lon="7.10369">
        <ele>488.7</ele>
        <time>2023-10-14T12:38:18Z</time>
      </trkpt>
      <trkpt lat="48.60329" lon="7.10374">
        <ele>488.5</ele>
        <time>2023-10-14T12:38:21Z</time>
      </trkpt>
      <trkpt lat="48.60326" lon="7.1038">
        <ele>488.4</ele>
        <time>2023-10-14T12:38:24Z</time>
      </trkpt>
      <trkpt lat="48.60325" lon="7.10408">
        <ele>487.7</ele>
        <time>2023-10-14T12:38:39Z</time>
      </trkpt>
      <trkpt lat="48.60324" lon="7.10414">
        <ele>487.5</ele>
        <time>2023-10-14T12:38:43Z</time>
      </trkpt>
      <trkpt lat="48.60326" lon="7.1041">
        <ele>487.4</ele>
        <time>2023-10-14T12:41:09Z</time>
      </trkpt>
      <trkpt lat="48.60325" lon="7.10407">
        <ele>487.3</ele>
        <time>2023-10-14T12:41:10Z</time>
      </trkpt>
      <trkpt lat="48.60315" lon="7.10383">
        <ele>487.8</ele>
        <time>2023-10-14T12:41:19Z</time>
      </trkpt>
      <trkpt lat="48.60299" lon="7.10367">
        <ele>488.7</ele>
        <time>2023-10-14T12:41:25Z</time>
      </trkpt>
      <trkpt lat="48.60281" lon="7.10348">
        <ele>489.5</ele>
        <time>2023-10-14T12:41:31Z</time>
      </trkpt>
      <trkpt lat="48.60266" lon="7.10333">
        <ele>490.1</ele>
        <time>2023-10-14T12:41:37Z</time>
      </trkpt>
      <trkpt lat="48.60251" lon="7.10313">
        <ele>490.7</ele>
        <time>2023-10-14T12:41:42Z</time>
      </trkpt>
      <trkpt lat="48.60238" lon="7.10288">
        <ele>491.2</ele>
        <time>2023-10-14T12:41:48Z</time>
      </trkpt>
      <trkpt lat="48.60228" lon="7.10262">
        <ele>491.4</ele>
        <time>2023-10-14T12:41:53Z</time>
      </trkpt>
      <trkpt lat="48.60225" lon="7.10233">
        <ele>491.3</ele>
        <time>2023-10-14T12:41:59Z</time>
      </trkpt>
      <trkpt lat="48.60223" lon="7.10204">
        <ele>491</ele>
        <time>2023-10-14T12:42:05Z</time>
      </trkpt>
      <trkpt lat="48.6022" lon="7.10177">
        <ele>490.7</ele>
        <time>2023-10-14T12:42:11Z</time>
      </trkpt>
      <trkpt lat="48.60212" lon="7.10154">
        <ele>487.1</ele>
        <time>2023-10-14T12:42:20Z</time>
      </trkpt>
      <trkpt lat="48.60208" lon="7.10152">
        <ele>485.1</ele>
        <time>2023-10-14T12:42:22Z</time>
      </trkpt>
      <trkpt lat="48.60205" lon="7.10151">
        <ele>483.2</ele>
        <time>2023-10-14T12:42:26Z</time>
      </trkpt>
      <trkpt lat="48.60201" lon="7.10146">
        <ele>481.2</ele>
        <time>2023-10-14T12:42:38Z</time>
      </trkpt>
      <trkpt lat="48.60202" lon="7.10137">
        <ele>481.2</ele>
        <time>2023-10-14T12:42:52Z</time>
      </trkpt>
      <trkpt lat="48.60202" lon="7.10143">
        <ele>481.2</ele>
        <time>2023-10-14T12:42:57Z</time>
      </trkpt>
      <trkpt lat="48.60205" lon="7.1017">
        <ele>480.9</ele>
        <time>2023-10-14T12:43:05Z</time>
      </trkpt>
      <trkpt lat="48.60205" lon="7.10176">
        <ele>480.9</ele>
        <time>2023-10-14T12:43:07Z</time>
      </trkpt>
      <trkpt lat="48.60202" lon="7.10195">
        <ele>480.7</ele>
        <time>2023-10-14T12:43:16Z</time>
      </trkpt>
      <trkpt lat="48.60197" lon="7.10197">
        <ele>480.7</ele>
        <time>2023-10-14T12:43:23Z</time>
      </trkpt>
      <trkpt lat="48.60194" lon="7.10202">
        <ele>480.7</ele>
        <time>2023-10-14T12:43:27Z</time>
      </trkpt>
      <trkpt lat="48.6019" lon="7.10201">
        <ele>480.6</ele>
        <time>2023-10-14T12:43:31Z</time>
      </trkpt>
      <trkpt lat="48.60186" lon="7.10202">
        <ele>480.6</ele>
        <time>2023-10-14T12:43:38Z</time>
      </trkpt>
      <trkpt lat="48.60187" lon="7.10218">
        <ele>480.5</ele>
        <time>2023-10-14T12:43:56Z</time>
      </trkpt>
      <trkpt lat="48.60181" lon="7.10227">
        <ele>480.5</ele>
        <time>2023-10-14T12:44:01Z</time>
      </trkpt>
      <trkpt lat="48.60186" lon="7.10257">
        <ele>480.3</ele>
        <time>2023-10-14T12:44:13Z</time>
      </trkpt>
      <trkpt lat="48.60179" lon="7.10283">
        <ele>480.1</ele>
        <time>2023-10-14T12:44:23Z</time>
      </trkpt>
      <trkpt lat="48.60182" lon="7.10311">
        <ele>479.8</ele>
        <time>2023-10-14T12:44:29Z</time>
      </trkpt>
      <trkpt lat="48.60185" lon="7.10338">
        <ele>479.4</ele>
        <time>2023-10-14T12:44:34Z</time>
      </trkpt>
      <trkpt lat="48.60187" lon="7.10367">
        <ele>479</ele>
        <time>2023-10-14T12:44:41Z</time>
      </trkpt>
      <trkpt lat="48.60191" lon="7.10394">
        <ele>478.7</ele>
        <time>2023-10-14T12:44:47Z</time>
      </trkpt>
      <trkpt lat="48.60195" lon="7.10421">
        <ele>478.7</ele>
        <time>2023-10-14T12:44:56Z</time>
      </trkpt>
      <trkpt lat="48.60194" lon="7.10425">
        <ele>478.7</ele>
        <time>2023-10-14T12:44:59Z</time>
      </trkpt>
      <trkpt lat="48.60194" lon="7.10431">
        <ele>478.6</ele>
        <time>2023-10-14T12:45:04Z</time>
      </trkpt>
      <trkpt lat="48.60197" lon="7.10436">
        <ele>478.6</ele>
        <time>2023-10-14T12:45:12Z</time>
      </trkpt>
      <trkpt lat="48.602" lon="7.10439">
        <ele>478.6</ele>
        <time>2023-10-14T12:45:15Z</time>
      </trkpt>
      <trkpt lat="48.60201" lon="7.10443">
        <ele>478.6</ele>
        <time>2023-10-14T12:45:18Z</time>
      </trkpt>
      <trkpt lat="48.60193" lon="7.10472">
        <ele>478.8</ele>
        <time>2023-10-14T12:45:32Z</time>
      </trkpt>
      <trkpt lat="48.60193" lon="7.10489">
        <ele>479</ele>
        <time>2023-10-14T12:45:41Z</time>
      </trkpt>
      <trkpt lat="48.60191" lon="7.10494">
        <ele>479</ele>
        <time>2023-10-14T12:45:45Z</time>
      </trkpt>
      <trkpt lat="48.6019" lon="7.10503">
        <ele>479.1</ele>
        <time>2023-10-14T12:45:49Z</time>
      </trkpt>
      <trkpt lat="48.60177" lon="7.10521">
        <ele>478.2</ele>
        <time>2023-10-14T12:45:57Z</time>
      </trkpt>
      <trkpt lat="48.60166" lon="7.10549">
        <ele>478.3</ele>
        <time>2023-10-14T12:46:11Z</time>
      </trkpt>
      <trkpt lat="48.60164" lon="7.10553">
        <ele>478.4</ele>
        <time>2023-10-14T12:46:14Z</time>
      </trkpt>
      <trkpt lat="48.60162" lon="7.10561">
        <ele>478.5</ele>
        <time>2023-10-14T12:46:19Z</time>
      </trkpt>
      <trkpt lat="48.60162" lon="7.10564">
        <ele>478.5</ele>
        <time>2023-10-14T12:46:22Z</time>
      </trkpt>
      <trkpt lat="48.60161" lon="7.10566">
        <ele>478.6</ele>
        <time>2023-10-14T12:46:24Z</time>
      </trkpt>
      <trkpt lat="48.60161" lon="7.10568">
        <ele>478.6</ele>
        <time>2023-10-14T12:46:27Z</time>
      </trkpt>
      <trkpt lat="48.60161" lon="7.1057">
        <ele>478.6</ele>
        <time>2023-10-14T12:46:30Z</time>
      </trkpt>
      <trkpt lat="48.6016" lon="7.10574">
        <ele>478.7</ele>
        <time>2023-10-14T12:46:34Z</time>
      </trkpt>
      <trkpt lat="48.60152" lon="7.106">
        <ele>479.2</ele>
        <time>2023-10-14T12:46:44Z</time>
      </trkpt>
      <trkpt lat="48.60142" lon="7.10623">
        <ele>479.6</ele>
        <time>2023-10-14T12:46:55Z</time>
      </trkpt>
      <trkpt lat="48.6014" lon="7.10632">
        <ele>479.8</ele>
        <time>2023-10-14T12:46:58Z</time>
      </trkpt>
      <trkpt lat="48.60137" lon="7.10661">
        <ele>480.4</ele>
        <time>2023-10-14T12:47:12Z</time>
      </trkpt>
      <trkpt lat="48.6013" lon="7.10687">
        <ele>480.7</ele>
        <time>2023-10-14T12:47:18Z</time>
      </trkpt>
      <trkpt lat="48.60127" lon="7.10714">
        <ele>480.9</ele>
        <time>2023-10-14T12:47:27Z</time>
      </trkpt>
      <trkpt lat="48.6012" lon="7.10742">
        <ele>481.2</ele>
        <time>2023-10-14T12:47:35Z</time>
      </trkpt>
      <trkpt lat="48.60116" lon="7.1077">
        <ele>481.3</ele>
        <time>2023-10-14T12:47:42Z</time>
      </trkpt>
      <trkpt lat="48.60109" lon="7.10796">
        <ele>480.8</ele>
        <time>2023-10-14T12:47:54Z</time>
      </trkpt>
      <trkpt lat="48.60108" lon="7.10801">
        <ele>480.6</ele>
        <time>2023-10-14T12:47:57Z</time>
      </trkpt>
      <trkpt lat="48.60108" lon="7.10803">
        <ele>480.3</ele>
        <time>2023-10-14T12:48:00Z</time>
      </trkpt>
      <trkpt lat="48.60105" lon="7.10805">
        <ele>480.1</ele>
        <time>2023-10-14T12:48:02Z</time>
      </trkpt>
      <trkpt lat="48.60097" lon="7.10805">
        <ele>479.7</ele>
        <time>2023-10-14T12:48:05Z</time>
      </trkpt>
      <trkpt lat="48.60093" lon="7.10803">
        <ele>479.4</ele>
        <time>2023-10-14T12:48:07Z</time>
      </trkpt>
      <trkpt lat="48.60083" lon="7.10792">
        <ele>478.4</ele>
        <time>2023-10-14T12:48:19Z</time>
      </trkpt>
      <trkpt lat="48.60081" lon="7.10794">
        <ele>478.1</ele>
        <time>2023-10-14T12:48:21Z</time>
      </trkpt>
      <trkpt lat="48.60082" lon="7.10796">
        <ele>478.1</ele>
        <time>2023-10-14T12:48:23Z</time>
      </trkpt>
      <trkpt lat="48.60082" lon="7.108">
        <ele>478.2</ele>
        <time>2023-10-14T12:48:25Z</time>
      </trkpt>
      <trkpt lat="48.60076" lon="7.10817">
        <ele>478.2</ele>
        <time>2023-10-14T12:48:34Z</time>
      </trkpt>
      <trkpt lat="48.60068" lon="7.10834">
        <ele>478.9</ele>
        <time>2023-10-14T12:48:41Z</time>
      </trkpt>
      <trkpt lat="48.60067" lon="7.10841">
        <ele>478.9</ele>
        <time>2023-10-14T12:48:44Z</time>
      </trkpt>
      <trkpt lat="48.60065" lon="7.10849">
        <ele>479.1</ele>
        <time>2023-10-14T12:48:50Z</time>
      </trkpt>
      <trkpt lat="48.60065" lon="7.10858">
        <ele>479.5</ele>
        <time>2023-10-14T12:48:55Z</time>
      </trkpt>
      <trkpt lat="48.60057" lon="7.10875">
        <ele>480.8</ele>
        <time>2023-10-14T12:49:05Z</time>
      </trkpt>
      <trkpt lat="48.6006" lon="7.10881">
        <ele>481.9</ele>
        <time>2023-10-14T12:49:09Z</time>
      </trkpt>
      <trkpt lat="48.60061" lon="7.10882">
        <ele>481.9</ele>
        <time>2023-10-14T12:49:11Z</time>
      </trkpt>
      <trkpt lat="48.60061" lon="7.10883">
        <ele>481.8</ele>
        <time>2023-10-14T12:49:13Z</time>
      </trkpt>
      <trkpt lat="48.60062" lon="7.10884">
        <ele>481.8</ele>
        <time>2023-10-14T12:49:16Z</time>
      </trkpt>
      <trkpt lat="48.60062" lon="7.1088">
        <ele>481.2</ele>
        <time>2023-10-14T12:49:22Z</time>
      </trkpt>
      <trkpt lat="48.60059" lon="7.10885">
        <ele>482.4</ele>
        <time>2023-10-14T12:49:25Z</time>
      </trkpt>
      <trkpt lat="48.60045" lon="7.10903">
        <ele>484.8</ele>
        <time>2023-10-14T12:49:32Z</time>
      </trkpt>
      <trkpt lat="48.60033" lon="7.10927">
        <ele>489.1</ele>
        <time>2023-10-14T12:49:42Z</time>
      </trkpt>
      <trkpt lat="48.60025" lon="7.10932">
        <ele>490.9</ele>
        <time>2023-10-14T12:49:50Z</time>
      </trkpt>
      <trkpt lat="48.60025" lon="7.10935">
        <ele>491</ele>
        <time>2023-10-14T12:49:52Z</time>
      </trkpt>
      <trkpt lat="48.60021" lon="7.10948">
        <ele>493.5</ele>
        <time>2023-10-14T12:49:58Z</time>
      </trkpt>
      <trkpt lat="48.60019" lon="7.10976">
        <ele>498.7</ele>
        <time>2023-10-14T12:50:08Z</time>
      </trkpt>
      <trkpt lat="48.6002" lon="7.10991">
        <ele>499.9</ele>
        <time>2023-10-14T12:50:16Z</time>
      </trkpt>
      <trkpt lat="48.60028" lon="7.10997">
        <ele>500.1</ele>
        <time>2023-10-14T12:50:38Z</time>
      </trkpt>
      <trkpt lat="48.60025" lon="7.11">
        <ele>500.6</ele>
        <time>2023-10-14T12:51:12Z</time>
      </trkpt>
      <trkpt lat="48.60025" lon="7.11">
        <ele>501.3</ele>
        <time>2023-10-14T12:51:13Z</time>
      </trkpt>
      <trkpt lat="48.60023" lon="7.11002">
        <ele>501.2</ele>
        <time>2023-10-14T12:51:16Z</time>
      </trkpt>
      <trkpt lat="48.60004" lon="7.11013">
        <ele>506.4</ele>
        <time>2023-10-14T12:51:32Z</time>
      </trkpt>
      <trkpt lat="48.59984" lon="7.11018">
        <ele>511.4</ele>
        <time>2023-10-14T12:51:42Z</time>
      </trkpt>
      <trkpt lat="48.59967" lon="7.1103">
        <ele>515.8</ele>
        <time>2023-10-14T12:51:51Z</time>
      </trkpt>
      <trkpt lat="48.59964" lon="7.11032">
        <ele>516.1</ele>
        <time>2023-10-14T12:51:53Z</time>
      </trkpt>
      <trkpt lat="48.59961" lon="7.11032">
        <ele>516.4</ele>
        <time>2023-10-14T12:51:55Z</time>
      </trkpt>
      <trkpt lat="48.59947" lon="7.11049">
        <ele>520.2</ele>
        <time>2023-10-14T12:52:07Z</time>
      </trkpt>
      <trkpt lat="48.59929" lon="7.11059">
        <ele>523.2</ele>
        <time>2023-10-14T12:52:14Z</time>
      </trkpt>
      <trkpt lat="48.59926" lon="7.11066">
        <ele>524.7</ele>
        <time>2023-10-14T12:52:17Z</time>
      </trkpt>
      <trkpt lat="48.5991" lon="7.11079">
        <ele>527</ele>
        <time>2023-10-14T12:52:27Z</time>
      </trkpt>
      <trkpt lat="48.59897" lon="7.11099">
        <ele>529</ele>
        <time>2023-10-14T12:52:40Z</time>
      </trkpt>
      <trkpt lat="48.59888" lon="7.11115">
        <ele>530.8</ele>
        <time>2023-10-14T12:52:50Z</time>
      </trkpt>
      <trkpt lat="48.59872" lon="7.1112">
        <ele>531.7</ele>
        <time>2023-10-14T12:53:00Z</time>
      </trkpt>
      <trkpt lat="48.59867" lon="7.1112">
        <ele>531.7</ele>
        <time>2023-10-14T12:53:06Z</time>
      </trkpt>
      <trkpt lat="48.59864" lon="7.11119">
        <ele>531.8</ele>
        <time>2023-10-14T12:53:09Z</time>
      </trkpt>
      <trkpt lat="48.59863" lon="7.11119">
        <ele>531.8</ele>
        <time>2023-10-14T12:53:11Z</time>
      </trkpt>
      <trkpt lat="48.5986" lon="7.11117">
        <ele>531.8</ele>
        <time>2023-10-14T12:53:14Z</time>
      </trkpt>
      <trkpt lat="48.59847" lon="7.11099">
        <ele>530.7</ele>
        <time>2023-10-14T12:53:25Z</time>
      </trkpt>
      <trkpt lat="48.59833" lon="7.11082">
        <ele>531.2</ele>
        <time>2023-10-14T12:53:34Z</time>
      </trkpt>
      <trkpt lat="48.59818" lon="7.11064">
        <ele>530.8</ele>
        <time>2023-10-14T12:53:41Z</time>
      </trkpt>
      <trkpt lat="48.59801" lon="7.11047">
        <ele>530.9</ele>
        <time>2023-10-14T12:53:47Z</time>
      </trkpt>
      <trkpt lat="48.59788" lon="7.11021">
        <ele>530.5</ele>
        <time>2023-10-14T12:53:53Z</time>
      </trkpt>
      <trkpt lat="48.59776" lon="7.10999">
        <ele>529.8</ele>
        <time>2023-10-14T12:53:59Z</time>
      </trkpt>
      <trkpt lat="48.59765" lon="7.10976">
        <ele>529.2</ele>
        <time>2023-10-14T12:54:06Z</time>
      </trkpt>
      <trkpt lat="48.59761" lon="7.10947">
        <ele>526.9</ele>
        <time>2023-10-14T12:54:12Z</time>
      </trkpt>
      <trkpt lat="48.59762" lon="7.1092">
        <ele>524.9</ele>
        <time>2023-10-14T12:54:17Z</time>
      </trkpt>
      <trkpt lat="48.59775" lon="7.10907">
        <ele>523.1</ele>
        <time>2023-10-14T12:54:26Z</time>
      </trkpt>
      <trkpt lat="48.5978" lon="7.1088">
        <ele>519.7</ele>
        <time>2023-10-14T12:54:36Z</time>
      </trkpt>
      <trkpt lat="48.59775" lon="7.10855">
        <ele>516.7</ele>
        <time>2023-10-14T12:54:46Z</time>
      </trkpt>
      <trkpt lat="48.59772" lon="7.10852">
        <ele>516.3</ele>
        <time>2023-10-14T12:54:53Z</time>
      </trkpt>
      <trkpt lat="48.59754" lon="7.10858">
        <ele>518</ele>
        <time>2023-10-14T12:55:10Z</time>
      </trkpt>
      <trkpt lat="48.59738" lon="7.1086">
        <ele>519</ele>
        <time>2023-10-14T12:55:22Z</time>
      </trkpt>
      <trkpt lat="48.5975" lon="7.10837">
        <ele>515.7</ele>
        <time>2023-10-14T12:55:34Z</time>
      </trkpt>
      <trkpt lat="48.59765" lon="7.10818">
        <ele>511.6</ele>
        <time>2023-10-14T12:55:40Z</time>
      </trkpt>
      <trkpt lat="48.5978" lon="7.10802">
        <ele>506.3</ele>
        <time>2023-10-14T12:55:45Z</time>
      </trkpt>
      <trkpt lat="48.59797" lon="7.1079">
        <ele>501.6</ele>
        <time>2023-10-14T12:55:51Z</time>
      </trkpt>
      <trkpt lat="48.59817" lon="7.10785">
        <ele>494.5</ele>
        <time>2023-10-14T12:55:59Z</time>
      </trkpt>
      <trkpt lat="48.59832" lon="7.10777">
        <ele>489.3</ele>
        <time>2023-10-14T12:56:09Z</time>
      </trkpt>
      <trkpt lat="48.59844" lon="7.10775">
        <ele>482.9</ele>
        <time>2023-10-14T12:56:20Z</time>
      </trkpt>
      <trkpt lat="48.59844" lon="7.10775">
        <ele>483.9</ele>
        <time>2023-10-14T12:56:22Z</time>
      </trkpt>
      <trkpt lat="48.59829" lon="7.10771">
        <ele>488.2</ele>
        <time>2023-10-14T12:56:50Z</time>
      </trkpt>
      <trkpt lat="48.59817" lon="7.10747">
        <ele>485.7</ele>
        <time>2023-10-14T12:57:04Z</time>
      </trkpt>
      <trkpt lat="48.59806" lon="7.10723">
        <ele>485.1</ele>
        <time>2023-10-14T12:57:14Z</time>
      </trkpt>
      <trkpt lat="48.59796" lon="7.10708">
        <ele>484.7</ele>
        <time>2023-10-14T12:57:21Z</time>
      </trkpt>
      <trkpt lat="48.59781" lon="7.10687">
        <ele>485.6</ele>
        <time>2023-10-14T12:57:28Z</time>
      </trkpt>
      <trkpt lat="48.59781" lon="7.1066">
        <ele>480.9</ele>
        <time>2023-10-14T12:57:35Z</time>
      </trkpt>
      <trkpt lat="48.59782" lon="7.10651">
        <ele>479.7</ele>
        <time>2023-10-14T12:57:37Z</time>
      </trkpt>
      <trkpt lat="48.59779" lon="7.10622">
        <ele>476.5</ele>
        <time>2023-10-14T12:57:44Z</time>
      </trkpt>
      <trkpt lat="48.59771" lon="7.10593">
        <ele>474.7</ele>
        <time>2023-10-14T12:57:53Z</time>
      </trkpt>
      <trkpt lat="48.59769" lon="7.10565">
        <ele>470.3</ele>
        <time>2023-10-14T12:58:02Z</time>
      </trkpt>
      <trkpt lat="48.5977" lon="7.10558">
        <ele>468.1</ele>
        <time>2023-10-14T12:58:08Z</time>
      </trkpt>
      <trkpt lat="48.59772" lon="7.10556">
        <ele>468.1</ele>
        <time>2023-10-14T12:58:10Z</time>
      </trkpt>
      <trkpt lat="48.59773" lon="7.10555">
        <ele>467.5</ele>
        <time>2023-10-14T12:58:12Z</time>
      </trkpt>
      <trkpt lat="48.59768" lon="7.1054">
        <ele>465.8</ele>
        <time>2023-10-14T12:58:35Z</time>
      </trkpt>
      <trkpt lat="48.59766" lon="7.10542">
        <ele>467</ele>
        <time>2023-10-14T12:58:36Z</time>
      </trkpt>
      <trkpt lat="48.59759" lon="7.10568">
        <ele>472.5</ele>
        <time>2023-10-14T12:58:46Z</time>
      </trkpt>
      <trkpt lat="48.59749" lon="7.10591">
        <ele>478</ele>
        <time>2023-10-14T12:58:52Z</time>
      </trkpt>
      <trkpt lat="48.59744" lon="7.10617">
        <ele>482.6</ele>
        <time>2023-10-14T12:59:03Z</time>
      </trkpt>
      <trkpt lat="48.59732" lon="7.10639">
        <ele>486.4</ele>
        <time>2023-10-14T12:59:15Z</time>
      </trkpt>
      <trkpt lat="48.59722" lon="7.10649">
        <ele>488.5</ele>
        <time>2023-10-14T12:59:23Z</time>
      </trkpt>
      <trkpt lat="48.59721" lon="7.1066">
        <ele>489.8</ele>
        <time>2023-10-14T12:59:29Z</time>
      </trkpt>
      <trkpt lat="48.59723" lon="7.10665">
        <ele>490.6</ele>
        <time>2023-10-14T12:59:31Z</time>
      </trkpt>
      <trkpt lat="48.59724" lon="7.1067">
        <ele>491.7</ele>
        <time>2023-10-14T12:59:36Z</time>
      </trkpt>
      <trkpt lat="48.59728" lon="7.10649">
        <ele>488.5</ele>
        <time>2023-10-14T12:59:45Z</time>
      </trkpt>
      <trkpt lat="48.59726" lon="7.10625">
        <ele>484.1</ele>
        <time>2023-10-14T13:00:03Z</time>
      </trkpt>
      <trkpt lat="48.59709" lon="7.10632">
        <ele>484</ele>
        <time>2023-10-14T13:00:18Z</time>
      </trkpt>
      <trkpt lat="48.59704" lon="7.1065">
        <ele>486.3</ele>
        <time>2023-10-14T13:00:26Z</time>
      </trkpt>
      <trkpt lat="48.59691" lon="7.10669">
        <ele>488</ele>
        <time>2023-10-14T13:00:33Z</time>
      </trkpt>
      <trkpt lat="48.59687" lon="7.10676">
        <ele>488.4</ele>
        <time>2023-10-14T13:00:42Z</time>
      </trkpt>
      <trkpt lat="48.59674" lon="7.10696">
        <ele>490.1</ele>
        <time>2023-10-14T13:01:04Z</time>
      </trkpt>
      <trkpt lat="48.59662" lon="7.10703">
        <ele>488.8</ele>
        <time>2023-10-14T13:01:19Z</time>
      </trkpt>
      <trkpt lat="48.59643" lon="7.107">
        <ele>485.7</ele>
        <time>2023-10-14T13:01:26Z</time>
      </trkpt>
      <trkpt lat="48.59625" lon="7.10706">
        <ele>485.4</ele>
        <time>2023-10-14T13:01:31Z</time>
      </trkpt>
      <trkpt lat="48.59605" lon="7.10707">
        <ele>484.5</ele>
        <time>2023-10-14T13:01:37Z</time>
      </trkpt>
      <trkpt lat="48.59587" lon="7.10704">
        <ele>484.5</ele>
        <time>2023-10-14T13:01:44Z</time>
      </trkpt>
      <trkpt lat="48.59569" lon="7.10694">
        <ele>482.6</ele>
        <time>2023-10-14T13:01:51Z</time>
      </trkpt>
      <trkpt lat="48.59556" lon="7.10694">
        <ele>484.3</ele>
        <time>2023-10-14T13:02:00Z</time>
      </trkpt>
      <trkpt lat="48.59552" lon="7.10692">
        <ele>484.8</ele>
        <time>2023-10-14T13:02:03Z</time>
      </trkpt>
      <trkpt lat="48.59534" lon="7.10681">
        <ele>485.8</ele>
        <time>2023-10-14T13:02:14Z</time>
      </trkpt>
      <trkpt lat="48.59519" lon="7.10663">
        <ele>486</ele>
        <time>2023-10-14T13:02:21Z</time>
      </trkpt>
      <trkpt lat="48.59505" lon="7.10643">
        <ele>484.9</ele>
        <time>2023-10-14T13:02:29Z</time>
      </trkpt>
      <trkpt lat="48.59491" lon="7.10625">
        <ele>484.6</ele>
        <time>2023-10-14T13:02:38Z</time>
      </trkpt>
      <trkpt lat="48.59474" lon="7.1061">
        <ele>484.2</ele>
        <time>2023-10-14T13:02:48Z</time>
      </trkpt>
      <trkpt lat="48.59472" lon="7.10608">
        <ele>483.6</ele>
        <time>2023-10-14T13:02:50Z</time>
      </trkpt>
      <trkpt lat="48.59457" lon="7.10611">
        <ele>485.3</ele>
        <time>2023-10-14T13:02:59Z</time>
      </trkpt>
      <trkpt lat="48.59458" lon="7.10619">
        <ele>486.8</ele>
        <time>2023-10-14T13:03:10Z</time>
      </trkpt>
      <trkpt lat="48.59459" lon="7.10621">
        <ele>486.7</ele>
        <time>2023-10-14T13:03:12Z</time>
      </trkpt>
      <trkpt lat="48.59462" lon="7.10622">
        <ele>486.5</ele>
        <time>2023-10-14T13:03:16Z</time>
      </trkpt>
      <trkpt lat="48.59463" lon="7.1062">
        <ele>486.5</ele>
        <time>2023-10-14T13:03:19Z</time>
      </trkpt>
      <trkpt lat="48.59464" lon="7.1062">
        <ele>486.4</ele>
        <time>2023-10-14T13:03:22Z</time>
      </trkpt>
      <trkpt lat="48.5945" lon="7.1063">
        <ele>488.3</ele>
        <time>2023-10-14T13:03:55Z</time>
      </trkpt>
      <trkpt lat="48.59433" lon="7.10643">
        <ele>491.1</ele>
        <time>2023-10-14T13:04:05Z</time>
      </trkpt>
      <trkpt lat="48.59417" lon="7.10658">
        <ele>494.3</ele>
        <time>2023-10-14T13:04:12Z</time>
      </trkpt>
      <trkpt lat="48.59405" lon="7.10679">
        <ele>496.5</ele>
        <time>2023-10-14T13:04:26Z</time>
      </trkpt>
      <trkpt lat="48.59403" lon="7.10683">
        <ele>496.9</ele>
        <time>2023-10-14T13:04:28Z</time>
      </trkpt>
      <trkpt lat="48.59401" lon="7.10687">
        <ele>497.4</ele>
        <time>2023-10-14T13:04:30Z</time>
      </trkpt>
      <trkpt lat="48.594" lon="7.10691">
        <ele>497.3</ele>
        <time>2023-10-14T13:04:32Z</time>
      </trkpt>
      <trkpt lat="48.594" lon="7.10694">
        <ele>497.9</ele>
        <time>2023-10-14T13:04:34Z</time>
      </trkpt>
      <trkpt lat="48.594" lon="7.10701">
        <ele>499.1</ele>
        <time>2023-10-14T13:04:38Z</time>
      </trkpt>
      <trkpt lat="48.594" lon="7.10704">
        <ele>499.7</ele>
        <time>2023-10-14T13:04:41Z</time>
      </trkpt>
      <trkpt lat="48.59401" lon="7.10706">
        <ele>499.7</ele>
        <time>2023-10-14T13:04:44Z</time>
      </trkpt>
      <trkpt lat="48.59404" lon="7.10709">
        <ele>500.3</ele>
        <time>2023-10-14T13:04:46Z</time>
      </trkpt>
      <trkpt lat="48.59419" lon="7.10729">
        <ele>502.6</ele>
        <time>2023-10-14T13:04:53Z</time>
      </trkpt>
      <trkpt lat="48.59431" lon="7.10752">
        <ele>505.4</ele>
        <time>2023-10-14T13:05:00Z</time>
      </trkpt>
      <trkpt lat="48.59443" lon="7.10776">
        <ele>507.6</ele>
        <time>2023-10-14T13:05:07Z</time>
      </trkpt>
      <trkpt lat="48.59447" lon="7.10796">
        <ele>510.2</ele>
        <time>2023-10-14T13:05:13Z</time>
      </trkpt>
      <trkpt lat="48.5945" lon="7.10823">
        <ele>512.8</ele>
        <time>2023-10-14T13:05:22Z</time>
      </trkpt>
      <trkpt lat="48.59452" lon="7.10828">
        <ele>513.1</ele>
        <time>2023-10-14T13:05:27Z</time>
      </trkpt>
      <trkpt lat="48.5947" lon="7.10833">
        <ele>513.5</ele>
        <time>2023-10-14T13:05:35Z</time>
      </trkpt>
      <trkpt lat="48.59485" lon="7.10852">
        <ele>515.3</ele>
        <time>2023-10-14T13:05:45Z</time>
      </trkpt>
      <trkpt lat="48.59497" lon="7.10872">
        <ele>516.6</ele>
        <time>2023-10-14T13:05:54Z</time>
      </trkpt>
      <trkpt lat="48.59501" lon="7.10897">
        <ele>518.2</ele>
        <time>2023-10-14T13:06:02Z</time>
      </trkpt>
      <trkpt lat="48.59509" lon="7.10924">
        <ele>520.4</ele>
        <time>2023-10-14T13:06:10Z</time>
      </trkpt>
      <trkpt lat="48.5951" lon="7.10952">
        <ele>521.6</ele>
        <time>2023-10-14T13:06:18Z</time>
      </trkpt>
      <trkpt lat="48.59514" lon="7.10975">
        <ele>522.4</ele>
        <time>2023-10-14T13:06:28Z</time>
      </trkpt>
      <trkpt lat="48.595" lon="7.10976">
        <ele>522.4</ele>
        <time>2023-10-14T13:06:44Z</time>
      </trkpt>
      <trkpt lat="48.59495" lon="7.10968">
        <ele>522</ele>
        <time>2023-10-14T13:06:50Z</time>
      </trkpt>
      <trkpt lat="48.59497" lon="7.10971">
        <ele>522.2</ele>
        <time>2023-10-14T13:06:53Z</time>
      </trkpt>
      <trkpt lat="48.59515" lon="7.10976">
        <ele>522.4</ele>
        <time>2023-10-14T13:07:04Z</time>
      </trkpt>
      <trkpt lat="48.59525" lon="7.10974">
        <ele>522.5</ele>
        <time>2023-10-14T13:07:08Z</time>
      </trkpt>
      <trkpt lat="48.59542" lon="7.10968">
        <ele>522.7</ele>
        <time>2023-10-14T13:07:14Z</time>
      </trkpt>
      <trkpt lat="48.59562" lon="7.10977">
        <ele>524</ele>
        <time>2023-10-14T13:07:20Z</time>
      </trkpt>
      <trkpt lat="48.59582" lon="7.10992">
        <ele>526</ele>
        <time>2023-10-14T13:07:27Z</time>
      </trkpt>
      <trkpt lat="48.59597" lon="7.11012">
        <ele>528.5</ele>
        <time>2023-10-14T13:07:34Z</time>
      </trkpt>
      <trkpt lat="48.59612" lon="7.1103">
        <ele>530.8</ele>
        <time>2023-10-14T13:07:40Z</time>
      </trkpt>
      <trkpt lat="48.5963" lon="7.11042">
        <ele>532.4</ele>
        <time>2023-10-14T13:07:47Z</time>
      </trkpt>
      <trkpt lat="48.59644" lon="7.11058">
        <ele>533.8</ele>
        <time>2023-10-14T13:07:55Z</time>
      </trkpt>
      <trkpt lat="48.59662" lon="7.11072">
        <ele>534.5</ele>
        <time>2023-10-14T13:08:03Z</time>
      </trkpt>
      <trkpt lat="48.59664" lon="7.11072">
        <ele>534.5</ele>
        <time>2023-10-14T13:08:04Z</time>
      </trkpt>
      <trkpt lat="48.59673" lon="7.11082">
        <ele>535</ele>
        <time>2023-10-14T13:08:11Z</time>
      </trkpt>
      <trkpt lat="48.59679" lon="7.11089">
        <ele>535</ele>
        <time>2023-10-14T13:08:16Z</time>
      </trkpt>
      <trkpt lat="48.59681" lon="7.11096">
        <ele>535.2</ele>
        <time>2023-10-14T13:08:19Z</time>
      </trkpt>
      <trkpt lat="48.59692" lon="7.11121">
        <ele>535.4</ele>
        <time>2023-10-14T13:08:27Z</time>
      </trkpt>
      <trkpt lat="48.59702" lon="7.11149">
        <ele>536</ele>
        <time>2023-10-14T13:08:33Z</time>
      </trkpt>
      <trkpt lat="48.59705" lon="7.11176">
        <ele>536.3</ele>
        <time>2023-10-14T13:08:37Z</time>
      </trkpt>
      <trkpt lat="48.59706" lon="7.11206">
        <ele>536.1</ele>
        <time>2023-10-14T13:08:42Z</time>
      </trkpt>
      <trkpt lat="48.59707" lon="7.11235">
        <ele>534.3</ele>
        <time>2023-10-14T13:08:48Z</time>
      </trkpt>
      <trkpt lat="48.59707" lon="7.11262">
        <ele>533</ele>
        <time>2023-10-14T13:08:54Z</time>
      </trkpt>
      <trkpt lat="48.59715" lon="7.11289">
        <ele>531.6</ele>
        <time>2023-10-14T13:09:00Z</time>
      </trkpt>
      <trkpt lat="48.59727" lon="7.11316">
        <ele>529.8</ele>
        <time>2023-10-14T13:09:06Z</time>
      </trkpt>
      <trkpt lat="48.59738" lon="7.11341">
        <ele>527.8</ele>
        <time>2023-10-14T13:09:12Z</time>
      </trkpt>
      <trkpt lat="48.59752" lon="7.11363">
        <ele>526.4</ele>
        <time>2023-10-14T13:09:19Z</time>
      </trkpt>
      <trkpt lat="48.59767" lon="7.11378">
        <ele>525.3</ele>
        <time>2023-10-14T13:09:25Z</time>
      </trkpt>
      <trkpt lat="48.59775" lon="7.11404">
        <ele>523.3</ele>
        <time>2023-10-14T13:09:32Z</time>
      </trkpt>
      <trkpt lat="48.59786" lon="7.11429">
        <ele>521.6</ele>
        <time>2023-10-14T13:09:38Z</time>
      </trkpt>
      <trkpt lat="48.59805" lon="7.11443">
        <ele>519.8</ele>
        <time>2023-10-14T13:09:43Z</time>
      </trkpt>
      <trkpt lat="48.59819" lon="7.11465">
        <ele>516.8</ele>
        <time>2023-10-14T13:09:48Z</time>
      </trkpt>
      <trkpt lat="48.59824" lon="7.115">
        <ele>513.5</ele>
        <time>2023-10-14T13:09:53Z</time>
      </trkpt>
      <trkpt lat="48.59829" lon="7.11533">
        <ele>509.5</ele>
        <time>2023-10-14T13:09:58Z</time>
      </trkpt>
      <trkpt lat="48.59831" lon="7.11563">
        <ele>504.9</ele>
        <time>2023-10-14T13:10:03Z</time>
      </trkpt>
      <trkpt lat="48.59836" lon="7.11592">
        <ele>501.2</ele>
        <time>2023-10-14T13:10:09Z</time>
      </trkpt>
      <trkpt lat="48.59842" lon="7.11599">
        <ele>499.3</ele>
        <time>2023-10-14T13:10:13Z</time>
      </trkpt>
      <trkpt lat="48.59842" lon="7.11606">
        <ele>498</ele>
        <time>2023-10-14T13:10:15Z</time>
      </trkpt>
      <trkpt lat="48.59835" lon="7.11624">
        <ele>497</ele>
        <time>2023-10-14T13:10:23Z</time>
      </trkpt>
      <trkpt lat="48.59841" lon="7.11626">
        <ele>495.6</ele>
        <time>2023-10-14T13:10:57Z</time>
      </trkpt>
      <trkpt lat="48.59842" lon="7.11625">
        <ele>495.6</ele>
        <time>2023-10-14T13:10:58Z</time>
      </trkpt>
      <trkpt lat="48.59857" lon="7.11611">
        <ele>494.5</ele>
        <time>2023-10-14T13:11:06Z</time>
      </trkpt>
      <trkpt lat="48.59859" lon="7.11611">
        <ele>493.8</ele>
        <time>2023-10-14T13:11:11Z</time>
      </trkpt>
      <trkpt lat="48.59862" lon="7.11611">
        <ele>493</ele>
        <time>2023-10-14T13:11:13Z</time>
      </trkpt>
      <trkpt lat="48.59862" lon="7.1164">
        <ele>489.1</ele>
        <time>2023-10-14T13:11:20Z</time>
      </trkpt>
      <trkpt lat="48.59859" lon="7.11647">
        <ele>489.3</ele>
        <time>2023-10-14T13:11:22Z</time>
      </trkpt>
      <trkpt lat="48.59855" lon="7.11649">
        <ele>489.4</ele>
        <time>2023-10-14T13:11:24Z</time>
      </trkpt>
      <trkpt lat="48.59847" lon="7.11637">
        <ele>492.7</ele>
        <time>2023-10-14T13:11:33Z</time>
      </trkpt>
      <trkpt lat="48.5985" lon="7.11638">
        <ele>492.2</ele>
        <time>2023-10-14T13:11:35Z</time>
      </trkpt>
      <trkpt lat="48.59857" lon="7.1164">
        <ele>490.4</ele>
        <time>2023-10-14T13:11:39Z</time>
      </trkpt>
      <trkpt lat="48.59862" lon="7.11614">
        <ele>492.3</ele>
        <time>2023-10-14T13:11:47Z</time>
      </trkpt>
      <trkpt lat="48.59858" lon="7.11586">
        <ele>497.8</ele>
        <time>2023-10-14T13:12:01Z</time>
      </trkpt>
      <trkpt lat="48.59857" lon="7.11559">
        <ele>501.3</ele>
        <time>2023-10-14T13:12:11Z</time>
      </trkpt>
      <trkpt lat="48.59851" lon="7.11529">
        <ele>507.1</ele>
        <time>2023-10-14T13:12:20Z</time>
      </trkpt>
      <trkpt lat="48.59849" lon="7.11499">
        <ele>510.8</ele>
        <time>2023-10-14T13:12:27Z</time>
      </trkpt>
      <trkpt lat="48.5985" lon="7.11472">
        <ele>512.5</ele>
        <time>2023-10-14T13:12:34Z</time>
      </trkpt>
      <trkpt lat="48.59854" lon="7.11443">
        <ele>514.9</ele>
        <time>2023-10-14T13:12:42Z</time>
      </trkpt>
      <trkpt lat="48.59864" lon="7.11418">
        <ele>515.8</ele>
        <time>2023-10-14T13:12:48Z</time>
      </trkpt>
      <trkpt lat="48.59878" lon="7.11397">
        <ele>516.4</ele>
        <time>2023-10-14T13:12:55Z</time>
      </trkpt>
      <trkpt lat="48.59891" lon="7.11377">
        <ele>516.9</ele>
        <time>2023-10-14T13:13:01Z</time>
      </trkpt>
      <trkpt lat="48.59905" lon="7.11356">
        <ele>518.4</ele>
        <time>2023-10-14T13:13:07Z</time>
      </trkpt>
      <trkpt lat="48.5992" lon="7.11338">
        <ele>520.4</ele>
        <time>2023-10-14T13:13:13Z</time>
      </trkpt>
      <trkpt lat="48.59939" lon="7.11329">
        <ele>521.6</ele>
        <time>2023-10-14T13:13:20Z</time>
      </trkpt>
      <trkpt lat="48.59958" lon="7.11328">
        <ele>521.1</ele>
        <time>2023-10-14T13:13:29Z</time>
      </trkpt>
      <trkpt lat="48.59978" lon="7.11324">
        <ele>521.7</ele>
        <time>2023-10-14T13:13:37Z</time>
      </trkpt>
      <trkpt lat="48.59996" lon="7.11329">
        <ele>521</ele>
        <time>2023-10-14T13:13:44Z</time>
      </trkpt>
      <trkpt lat="48.60016" lon="7.11333">
        <ele>519.5</ele>
        <time>2023-10-14T13:13:51Z</time>
      </trkpt>
      <trkpt lat="48.60024" lon="7.11326">
        <ele>519.1</ele>
        <time>2023-10-14T13:13:56Z</time>
      </trkpt>
      <trkpt lat="48.60032" lon="7.11296">
        <ele>520</ele>
        <time>2023-10-14T13:14:06Z</time>
      </trkpt>
      <trkpt lat="48.6004" lon="7.11269">
        <ele>519.8</ele>
        <time>2023-10-14T13:14:12Z</time>
      </trkpt>
      <trkpt lat="48.60049" lon="7.11243">
        <ele>518.5</ele>
        <time>2023-10-14T13:14:19Z</time>
      </trkpt>
      <trkpt lat="48.60058" lon="7.11217">
        <ele>515.5</ele>
        <time>2023-10-14T13:14:27Z</time>
      </trkpt>
      <trkpt lat="48.6006" lon="7.11188">
        <ele>512.9</ele>
        <time>2023-10-14T13:14:35Z</time>
      </trkpt>
      <trkpt lat="48.60064" lon="7.11161">
        <ele>509.6</ele>
        <time>2023-10-14T13:14:46Z</time>
      </trkpt>
      <trkpt lat="48.60068" lon="7.11152">
        <ele>507</ele>
        <time>2023-10-14T13:15:05Z</time>
      </trkpt>
      <trkpt lat="48.60068" lon="7.11153">
        <ele>507.7</ele>
        <time>2023-10-14T13:15:06Z</time>
      </trkpt>
      <trkpt lat="48.60062" lon="7.11157">
        <ele>509.8</ele>
        <time>2023-10-14T13:15:12Z</time>
      </trkpt>
      <trkpt lat="48.60061" lon="7.11162">
        <ele>510.3</ele>
        <time>2023-10-14T13:15:17Z</time>
      </trkpt>
      <trkpt lat="48.60061" lon="7.11165">
        <ele>510.7</ele>
        <time>2023-10-14T13:15:21Z</time>
      </trkpt>
      <trkpt lat="48.60065" lon="7.11178">
        <ele>510.5</ele>
        <time>2023-10-14T13:15:30Z</time>
      </trkpt>
      <trkpt lat="48.60071" lon="7.11161">
        <ele>507.1</ele>
        <time>2023-10-14T13:15:53Z</time>
      </trkpt>
      <trkpt lat="48.60081" lon="7.11184">
        <ele>506.3</ele>
        <time>2023-10-14T13:16:01Z</time>
      </trkpt>
      <trkpt lat="48.60088" lon="7.11212">
        <ele>505.1</ele>
        <time>2023-10-14T13:16:09Z</time>
      </trkpt>
      <trkpt lat="48.60095" lon="7.11241">
        <ele>504.5</ele>
        <time>2023-10-14T13:16:15Z</time>
      </trkpt>
      <trkpt lat="48.60101" lon="7.1127">
        <ele>502.7</ele>
        <time>2023-10-14T13:16:22Z</time>
      </trkpt>
      <trkpt lat="48.601" lon="7.11298">
        <ele>503.4</ele>
        <time>2023-10-14T13:16:32Z</time>
      </trkpt>
      <trkpt lat="48.60097" lon="7.1131">
        <ele>504.8</ele>
        <time>2023-10-14T13:16:37Z</time>
      </trkpt>
      <trkpt lat="48.60094" lon="7.11313">
        <ele>505.6</ele>
        <time>2023-10-14T13:16:39Z</time>
      </trkpt>
      <trkpt lat="48.60087" lon="7.11337">
        <ele>507.9</ele>
        <time>2023-10-14T13:16:47Z</time>
      </trkpt>
      <trkpt lat="48.60099" lon="7.11362">
        <ele>504.2</ele>
        <time>2023-10-14T13:16:55Z</time>
      </trkpt>
      <trkpt lat="48.60101" lon="7.11364">
        <ele>503.5</ele>
        <time>2023-10-14T13:16:57Z</time>
      </trkpt>
      <trkpt lat="48.60105" lon="7.11361">
        <ele>501.9</ele>
        <time>2023-10-14T13:17:04Z</time>
      </trkpt>
      <trkpt lat="48.60107" lon="7.11387">
        <ele>501</ele>
        <time>2023-10-14T13:17:21Z</time>
      </trkpt>
      <trkpt lat="48.60119" lon="7.11414">
        <ele>497.4</ele>
        <time>2023-10-14T13:17:28Z</time>
      </trkpt>
      <trkpt lat="48.60126" lon="7.11444">
        <ele>496.6</ele>
        <time>2023-10-14T13:17:34Z</time>
      </trkpt>
      <trkpt lat="48.60139" lon="7.11462">
        <ele>493.1</ele>
        <time>2023-10-14T13:17:41Z</time>
      </trkpt>
      <trkpt lat="48.60158" lon="7.11463">
        <ele>488</ele>
        <time>2023-10-14T13:17:48Z</time>
      </trkpt>
      <trkpt lat="48.60161" lon="7.11464">
        <ele>487.3</ele>
        <time>2023-10-14T13:17:49Z</time>
      </trkpt>
      <trkpt lat="48.60179" lon="7.11479">
        <ele>482.4</ele>
        <time>2023-10-14T13:17:56Z</time>
      </trkpt>
      <trkpt lat="48.60195" lon="7.11494">
        <ele>478.4</ele>
        <time>2023-10-14T13:18:04Z</time>
      </trkpt>
      <trkpt lat="48.60207" lon="7.11516">
        <ele>475.7</ele>
        <time>2023-10-14T13:18:13Z</time>
      </trkpt>
      <trkpt lat="48.60211" lon="7.1154">
        <ele>474.7</ele>
        <time>2023-10-14T13:18:21Z</time>
      </trkpt>
      <trkpt lat="48.6022" lon="7.11566">
        <ele>473.4</ele>
        <time>2023-10-14T13:18:29Z</time>
      </trkpt>
      <trkpt lat="48.60227" lon="7.11586">
        <ele>472.1</ele>
        <time>2023-10-14T13:18:39Z</time>
      </trkpt>
      <trkpt lat="48.60229" lon="7.11575">
        <ele>472</ele>
        <time>2023-10-14T13:19:10Z</time>
      </trkpt>
      <trkpt lat="48.60231" lon="7.11574">
        <ele>472</ele>
        <time>2023-10-14T13:19:13Z</time>
      </trkpt>
      <trkpt lat="48.60229" lon="7.11573">
        <ele>472</ele>
        <time>2023-10-14T13:19:17Z</time>
      </trkpt>
      <trkpt lat="48.60232" lon="7.11551">
        <ele>471.8</ele>
        <time>2023-10-14T13:19:30Z</time>
      </trkpt>
      <trkpt lat="48.60233" lon="7.11552">
        <ele>471.8</ele>
        <time>2023-10-14T13:19:39Z</time>
      </trkpt>
      <trkpt lat="48.60234" lon="7.11551">
        <ele>471.8</ele>
        <time>2023-10-14T13:19:41Z</time>
      </trkpt>
      <trkpt lat="48.60227" lon="7.11539">
        <ele>471.7</ele>
        <time>2023-10-14T13:19:54Z</time>
      </trkpt>
      <trkpt lat="48.60224" lon="7.11522">
        <ele>471.5</ele>
        <time>2023-10-14T13:20:04Z</time>
      </trkpt>
      <trkpt lat="48.60222" lon="7.1152">
        <ele>471.4</ele>
        <time>2023-10-14T13:20:06Z</time>
      </trkpt>
      <trkpt lat="48.60211" lon="7.11503">
        <ele>471.1</ele>
        <time>2023-10-14T13:20:22Z</time>
      </trkpt>
      <trkpt lat="48.60208" lon="7.11489">
        <ele>471</ele>
        <time>2023-10-14T13:20:31Z</time>
      </trkpt>
      <trkpt lat="48.60202" lon="7.11477">
        <ele>470.8</ele>
        <time>2023-10-14T13:20:40Z</time>
      </trkpt>
      <trkpt lat="48.60196" lon="7.1147">
        <ele>470.7</ele>
        <time>2023-10-14T13:20:44Z</time>
      </trkpt>
      <trkpt lat="48.60191" lon="7.11464">
        <ele>470.6</ele>
        <time>2023-10-14T13:20:51Z</time>
      </trkpt>
      <trkpt lat="48.60193" lon="7.11463">
        <ele>470.5</ele>
        <time>2023-10-14T13:20:53Z</time>
      </trkpt>
      <trkpt lat="48.60188" lon="7.11453">
        <ele>470.4</ele>
        <time>2023-10-14T13:21:00Z</time>
      </trkpt>
      <trkpt lat="48.60191" lon="7.11426">
        <ele>470</ele>
        <time>2023-10-14T13:21:13Z</time>
      </trkpt>
      <trkpt lat="48.60193" lon="7.1142">
        <ele>469.9</ele>
        <time>2023-10-14T13:21:18Z</time>
      </trkpt>
      <trkpt lat="48.60203" lon="7.1143">
        <ele>469.6</ele>
        <time>2023-10-14T13:21:33Z</time>
      </trkpt>
      <trkpt lat="48.60208" lon="7.11435">
        <ele>469.5</ele>
        <time>2023-10-14T13:21:42Z</time>
      </trkpt>
      <trkpt lat="48.60195" lon="7.11412">
        <ele>469.2</ele>
        <time>2023-10-14T13:21:56Z</time>
      </trkpt>
      <trkpt lat="48.60194" lon="7.11409">
        <ele>469.1</ele>
        <time>2023-10-14T13:21:59Z</time>
      </trkpt>
      <trkpt lat="48.60185" lon="7.11389">
        <ele>468.8</ele>
        <time>2023-10-14T13:22:14Z</time>
      </trkpt>
      <trkpt lat="48.60183" lon="7.11387">
        <ele>468.7</ele>
        <time>2023-10-14T13:22:16Z</time>
      </trkpt>
      <trkpt lat="48.60168" lon="7.1137">
        <ele>468.4</ele>
        <time>2023-10-14T13:22:29Z</time>
      </trkpt>
      <trkpt lat="48.60157" lon="7.11346">
        <ele>468.1</ele>
        <time>2023-10-14T13:22:38Z</time>
      </trkpt>
      <trkpt lat="48.60153" lon="7.11317">
        <ele>467.8</ele>
        <time>2023-10-14T13:22:48Z</time>
      </trkpt>
      <trkpt lat="48.60142" lon="7.11296">
        <ele>467.6</ele>
        <time>2023-10-14T13:22:55Z</time>
      </trkpt>
      <trkpt lat="48.60131" lon="7.11273">
        <ele>467.4</ele>
        <time>2023-10-14T13:23:01Z</time>
      </trkpt>
      <trkpt lat="48.60125" lon="7.11244">
        <ele>467.1</ele>
        <time>2023-10-14T13:23:08Z</time>
      </trkpt>
      <trkpt lat="48.60117" lon="7.11219">
        <ele>466.7</ele>
        <time>2023-10-14T13:23:14Z</time>
      </trkpt>
      <trkpt lat="48.6012" lon="7.11191">
        <ele>466.3</ele>
        <time>2023-10-14T13:23:22Z</time>
      </trkpt>
      <trkpt lat="48.60124" lon="7.1116">
        <ele>465.8</ele>
        <time>2023-10-14T13:23:28Z</time>
      </trkpt>
      <trkpt lat="48.6012" lon="7.11128">
        <ele>465.3</ele>
        <time>2023-10-14T13:23:34Z</time>
      </trkpt>
      <trkpt lat="48.60115" lon="7.11099">
        <ele>464.9</ele>
        <time>2023-10-14T13:23:39Z</time>
      </trkpt>
      <trkpt lat="48.60113" lon="7.1107">
        <ele>464.5</ele>
        <time>2023-10-14T13:23:45Z</time>
      </trkpt>
      <trkpt lat="48.60118" lon="7.11059">
        <ele>464.2</ele>
        <time>2023-10-14T13:23:51Z</time>
      </trkpt>
      <trkpt lat="48.6012" lon="7.11057">
        <ele>464.2</ele>
        <time>2023-10-14T13:23:54Z</time>
      </trkpt>
      <trkpt lat="48.60113" lon="7.11032">
        <ele>463.8</ele>
        <time>2023-10-14T13:24:17Z</time>
      </trkpt>
      <trkpt lat="48.60113" lon="7.11031">
        <ele>463.7</ele>
        <time>2023-10-14T13:24:18Z</time>
      </trkpt>
      <trkpt lat="48.60115" lon="7.11024">
        <ele>463.6</ele>
        <time>2023-10-14T13:24:22Z</time>
      </trkpt>
      <trkpt lat="48.6012" lon="7.11008">
        <ele>463.4</ele>
        <time>2023-10-14T13:24:34Z</time>
      </trkpt>
      <trkpt lat="48.60121" lon="7.11013">
        <ele>463.3</ele>
        <time>2023-10-14T13:24:36Z</time>
      </trkpt>
      <trkpt lat="48.60134" lon="7.11031">
        <ele>463</ele>
        <time>2023-10-14T13:24:44Z</time>
      </trkpt>
      <trkpt lat="48.60144" lon="7.11021">
        <ele>462.8</ele>
        <time>2023-10-14T13:24:51Z</time>
      </trkpt>
      <trkpt lat="48.6015" lon="7.11007">
        <ele>462.6</ele>
        <time>2023-10-14T13:24:58Z</time>
      </trkpt>
      <trkpt lat="48.60152" lon="7.10999">
        <ele>462.4</ele>
        <time>2023-10-14T13:25:02Z</time>
      </trkpt>
      <trkpt lat="48.60164" lon="7.1099">
        <ele>462.1</ele>
        <time>2023-10-14T13:25:17Z</time>
      </trkpt>
      <trkpt lat="48.60168" lon="7.10982">
        <ele>462</ele>
        <time>2023-10-14T13:25:20Z</time>
      </trkpt>
      <trkpt lat="48.60164" lon="7.10954">
        <ele>461.6</ele>
        <time>2023-10-14T13:25:26Z</time>
      </trkpt>
      <trkpt lat="48.60164" lon="7.10925">
        <ele>461.3</ele>
        <time>2023-10-14T13:25:32Z</time>
      </trkpt>
      <trkpt lat="48.60167" lon="7.10896">
        <ele>460.8</ele>
        <time>2023-10-14T13:25:38Z</time>
      </trkpt>
      <trkpt lat="48.60176" lon="7.10867">
        <ele>460.4</ele>
        <time>2023-10-14T13:25:45Z</time>
      </trkpt>
      <trkpt lat="48.60191" lon="7.10851">
        <ele>460</ele>
        <time>2023-10-14T13:25:51Z</time>
      </trkpt>
      <trkpt lat="48.60196" lon="7.10851">
        <ele>459.8</ele>
        <time>2023-10-14T13:25:54Z</time>
      </trkpt>
      <trkpt lat="48.60215" lon="7.10849">
        <ele>459.1</ele>
        <time>2023-10-14T13:26:02Z</time>
      </trkpt>
      <trkpt lat="48.60223" lon="7.10848">
        <ele>458.9</ele>
        <time>2023-10-14T13:26:09Z</time>
      </trkpt>
      <trkpt lat="48.60227" lon="7.10825">
        <ele>458.3</ele>
        <time>2023-10-14T13:26:27Z</time>
      </trkpt>
      <trkpt lat="48.6023" lon="7.10817">
        <ele>458.1</ele>
        <time>2023-10-14T13:26:37Z</time>
      </trkpt>
      <trkpt lat="48.60245" lon="7.10799">
        <ele>457.6</ele>
        <time>2023-10-14T13:26:45Z</time>
      </trkpt>
      <trkpt lat="48.60261" lon="7.10783">
        <ele>457.2</ele>
        <time>2023-10-14T13:26:52Z</time>
      </trkpt>
      <trkpt lat="48.60278" lon="7.10773">
        <ele>456.7</ele>
        <time>2023-10-14T13:27:01Z</time>
      </trkpt>
      <trkpt lat="48.60288" lon="7.10758">
        <ele>462.6</ele>
        <time>2023-10-14T13:27:24Z</time>
      </trkpt>
      <trkpt lat="48.60293" lon="7.10751">
        <ele>466</ele>
        <time>2023-10-14T13:27:34Z</time>
      </trkpt>
      <trkpt lat="48.60291" lon="7.10747">
        <ele>465.4</ele>
        <time>2023-10-14T13:27:37Z</time>
      </trkpt>
      <trkpt lat="48.60292" lon="7.10737">
        <ele>470</ele>
        <time>2023-10-14T13:27:46Z</time>
      </trkpt>
      <trkpt lat="48.60293" lon="7.10735">
        <ele>469.8</ele>
        <time>2023-10-14T13:27:50Z</time>
      </trkpt>
      <trkpt lat="48.60293" lon="7.10733">
        <ele>471</ele>
        <time>2023-10-14T13:27:52Z</time>
      </trkpt>
      <trkpt lat="48.60294" lon="7.10731">
        <ele>470.6</ele>
        <time>2023-10-14T13:27:56Z</time>
      </trkpt>
      <trkpt lat="48.60294" lon="7.10728">
        <ele>471.6</ele>
        <time>2023-10-14T13:27:58Z</time>
      </trkpt>
      <trkpt lat="48.60293" lon="7.10724">
        <ele>472.5</ele>
        <time>2023-10-14T13:28:01Z</time>
      </trkpt>
      <trkpt lat="48.60294" lon="7.1072">
        <ele>473.2</ele>
        <time>2023-10-14T13:28:03Z</time>
      </trkpt>
      <trkpt lat="48.603" lon="7.10705">
        <ele>476.1</ele>
        <time>2023-10-14T13:28:17Z</time>
      </trkpt>
      <trkpt lat="48.60308" lon="7.10711">
        <ele>475.8</ele>
        <time>2023-10-14T13:28:26Z</time>
      </trkpt>
      <trkpt lat="48.60311" lon="7.10702">
        <ele>477.5</ele>
        <time>2023-10-14T13:28:39Z</time>
      </trkpt>
      <trkpt lat="48.60304" lon="7.10676">
        <ele>479.3</ele>
        <time>2023-10-14T13:28:50Z</time>
      </trkpt>
      <trkpt lat="48.60293" lon="7.10652">
        <ele>479.5</ele>
        <time>2023-10-14T13:28:58Z</time>
      </trkpt>
      <trkpt lat="48.60292" lon="7.10625">
        <ele>481.2</ele>
        <time>2023-10-14T13:29:06Z</time>
      </trkpt>
      <trkpt lat="48.60293" lon="7.10613">
        <ele>482.2</ele>
        <time>2023-10-14T13:29:11Z</time>
      </trkpt>
      <trkpt lat="48.6029" lon="7.10601">
        <ele>481.8</ele>
        <time>2023-10-14T13:29:18Z</time>
      </trkpt>
      <trkpt lat="48.60282" lon="7.10573">
        <ele>480.6</ele>
        <time>2023-10-14T13:29:25Z</time>
      </trkpt>
      <trkpt lat="48.60281" lon="7.10546">
        <ele>480.4</ele>
        <time>2023-10-14T13:29:32Z</time>
      </trkpt>
      <trkpt lat="48.60288" lon="7.1053">
        <ele>482.3</ele>
        <time>2023-10-14T13:29:38Z</time>
      </trkpt>
      <trkpt lat="48.60287" lon="7.10501">
        <ele>482.8</ele>
        <time>2023-10-14T13:29:55Z</time>
      </trkpt>
      <trkpt lat="48.60292" lon="7.10473">
        <ele>483.9</ele>
        <time>2023-10-14T13:30:05Z</time>
      </trkpt>
      <trkpt lat="48.60297" lon="7.10444">
        <ele>485.3</ele>
        <time>2023-10-14T13:30:12Z</time>
      </trkpt>
      <trkpt lat="48.60304" lon="7.10417">
        <ele>486.5</ele>
        <time>2023-10-14T13:30:20Z</time>
      </trkpt>
      <trkpt lat="48.60311" lon="7.10391">
        <ele>487.6</ele>
        <time>2023-10-14T13:30:28Z</time>
      </trkpt>
      <trkpt lat="48.60319" lon="7.10364">
        <ele>488.6</ele>
        <time>2023-10-14T13:30:37Z</time>
      </trkpt>
      <trkpt lat="48.60321" lon="7.10352">
        <ele>489</ele>
        <time>2023-10-14T13:30:44Z</time>
      </trkpt>
      <trkpt lat="48.60329" lon="7.10376">
        <ele>488</ele>
        <time>2023-10-14T13:30:57Z</time>
      </trkpt>
      <trkpt lat="48.60331" lon="7.10408">
        <ele>487.1</ele>
        <time>2023-10-14T13:31:04Z</time>
      </trkpt>
      <trkpt lat="48.60331" lon="7.10421">
        <ele>486.7</ele>
        <time>2023-10-14T13:31:10Z</time>
      </trkpt>
      <trkpt lat="48.60317" lon="7.10438">
        <ele>485.7</ele>
        <time>2023-10-14T13:31:21Z</time>
      </trkpt>
      <trkpt lat="48.603" lon="7.10448">
        <ele>484.8</ele>
        <time>2023-10-14T13:31:28Z</time>
      </trkpt>
      <trkpt lat="48.60285" lon="7.1047">
        <ele>483.5</ele>
        <time>2023-10-14T13:31:35Z</time>
      </trkpt>
      <trkpt lat="48.6027" lon="7.10487">
        <ele>482.1</ele>
        <time>2023-10-14T13:31:40Z</time>
      </trkpt>
      <trkpt lat="48.60257" lon="7.10513">
        <ele>480.4</ele>
        <time>2023-10-14T13:31:45Z</time>
      </trkpt>
      <trkpt lat="48.60243" lon="7.10538">
        <ele>479.1</ele>
        <time>2023-10-14T13:31:51Z</time>
      </trkpt>
      <trkpt lat="48.60235" lon="7.10567">
        <ele>478.2</ele>
        <time>2023-10-14T13:31:57Z</time>
      </trkpt>
      <trkpt lat="48.60225" lon="7.10592">
        <ele>478.3</ele>
        <time>2023-10-14T13:32:04Z</time>
      </trkpt>
      <trkpt lat="48.60213" lon="7.10614">
        <ele>478.8</ele>
        <time>2023-10-14T13:32:11Z</time>
      </trkpt>
      <trkpt lat="48.60199" lon="7.10636">
        <ele>479.3</ele>
        <time>2023-10-14T13:32:20Z</time>
      </trkpt>
      <trkpt lat="48.60188" lon="7.10658">
        <ele>479.7</ele>
        <time>2023-10-14T13:32:26Z</time>
      </trkpt>
      <trkpt lat="48.60178" lon="7.10682">
        <ele>480.3</ele>
        <time>2023-10-14T13:32:33Z</time>
      </trkpt>
      <trkpt lat="48.60167" lon="7.10709">
        <ele>480.7</ele>
        <time>2023-10-14T13:32:39Z</time>
      </trkpt>
      <trkpt lat="48.60159" lon="7.10731">
        <ele>480.9</ele>
        <time>2023-10-14T13:32:45Z</time>
      </trkpt>
      <trkpt lat="48.60132" lon="7.10777">
        <ele>481.4</ele>
        <time>2023-10-14T14:04:23Z</time>
      </trkpt>
      <trkpt lat="48.6013" lon="7.10805">
        <ele>480.7</ele>
        <time>2023-10-14T14:04:36Z</time>
      </trkpt>
      <trkpt lat="48.60129" lon="7.10815">
        <ele>480.3</ele>
        <time>2023-10-14T14:04:43Z</time>
      </trkpt>
      <trkpt lat="48.60122" lon="7.10844">
        <ele>478.6</ele>
        <time>2023-10-14T14:04:52Z</time>
      </trkpt>
      <trkpt lat="48.60113" lon="7.10869">
        <ele>478.1</ele>
        <time>2023-10-14T14:04:58Z</time>
      </trkpt>
      <trkpt lat="48.60103" lon="7.10895">
        <ele>478.2</ele>
        <time>2023-10-14T14:05:05Z</time>
      </trkpt>
      <trkpt lat="48.60088" lon="7.1091">
        <ele>477.2</ele>
        <time>2023-10-14T14:05:14Z</time>
      </trkpt>
      <trkpt lat="48.6007" lon="7.1092">
        <ele>476.2</ele>
        <time>2023-10-14T14:05:26Z</time>
      </trkpt>
      <trkpt lat="48.60053" lon="7.10933">
        <ele>475.1</ele>
        <time>2023-10-14T14:05:41Z</time>
      </trkpt>
      <trkpt lat="48.60038" lon="7.10949">
        <ele>474.1</ele>
        <time>2023-10-14T14:05:52Z</time>
      </trkpt>
      <trkpt lat="48.60025" lon="7.1097">
        <ele>473.1</ele>
        <time>2023-10-14T14:06:03Z</time>
      </trkpt>
      <trkpt lat="48.60008" lon="7.10976">
        <ele>472.2</ele>
        <time>2023-10-14T14:06:14Z</time>
      </trkpt>
      <trkpt lat="48.59992" lon="7.10966">
        <ele>471.2</ele>
        <time>2023-10-14T14:06:27Z</time>
      </trkpt>
      <trkpt lat="48.59991" lon="7.10967">
        <ele>471.2</ele>
        <time>2023-10-14T14:06:28Z</time>
      </trkpt>
      <trkpt lat="48.5999" lon="7.10968">
        <ele>471.1</ele>
        <time>2023-10-14T14:06:31Z</time>
      </trkpt>
      <trkpt lat="48.59989" lon="7.1097">
        <ele>471</ele>
        <time>2023-10-14T14:06:34Z</time>
      </trkpt>
      <trkpt lat="48.59991" lon="7.10971">
        <ele>470.9</ele>
        <time>2023-10-14T14:06:37Z</time>
      </trkpt>
      <trkpt lat="48.60009" lon="7.10982">
        <ele>469.9</ele>
        <time>2023-10-14T14:06:50Z</time>
      </trkpt>
      <trkpt lat="48.60015" lon="7.10992">
        <ele>469.4</ele>
        <time>2023-10-14T14:06:58Z</time>
      </trkpt>
      <trkpt lat="48.60014" lon="7.1098">
        <ele>468.9</ele>
        <time>2023-10-14T14:07:12Z</time>
      </trkpt>
      <trkpt lat="48.59998" lon="7.10966">
        <ele>467.9</ele>
        <time>2023-10-14T14:07:22Z</time>
      </trkpt>
      <trkpt lat="48.59979" lon="7.10961">
        <ele>466.9</ele>
        <time>2023-10-14T14:07:34Z</time>
      </trkpt>
      <trkpt lat="48.5996" lon="7.10958">
        <ele>465.9</ele>
        <time>2023-10-14T14:07:43Z</time>
      </trkpt>
      <trkpt lat="48.59944" lon="7.10947">
        <ele>464.9</ele>
        <time>2023-10-14T14:07:53Z</time>
      </trkpt>
      <trkpt lat="48.59925" lon="7.10938">
        <ele>463.8</ele>
        <time>2023-10-14T14:08:01Z</time>
      </trkpt>
      <trkpt lat="48.59908" lon="7.10923">
        <ele>462.8</ele>
        <time>2023-10-14T14:08:09Z</time>
      </trkpt>
      <trkpt lat="48.59894" lon="7.10907">
        <ele>461.8</ele>
        <time>2023-10-14T14:08:18Z</time>
      </trkpt>
      <trkpt lat="48.59892" lon="7.10907">
        <ele>461.7</ele>
        <time>2023-10-14T14:08:20Z</time>
      </trkpt>
      <trkpt lat="48.59891" lon="7.10905">
        <ele>461.6</ele>
        <time>2023-10-14T14:08:23Z</time>
      </trkpt>
      <trkpt lat="48.59875" lon="7.10888">
        <ele>460.6</ele>
        <time>2023-10-14T14:08:40Z</time>
      </trkpt>
      <trkpt lat="48.59859" lon="7.10873">
        <ele>459.5</ele>
        <time>2023-10-14T14:08:49Z</time>
      </trkpt>
      <trkpt lat="48.59844" lon="7.10853">
        <ele>458.5</ele>
        <time>2023-10-14T14:08:58Z</time>
      </trkpt>
      <trkpt lat="48.5983" lon="7.10834">
        <ele>457.5</ele>
        <time>2023-10-14T14:09:07Z</time>
      </trkpt>
      <trkpt lat="48.59824" lon="7.10821">
        <ele>456.9</ele>
        <time>2023-10-14T14:09:14Z</time>
      </trkpt>
      <trkpt lat="48.59833" lon="7.10797">
        <ele>455.9</ele>
        <time>2023-10-14T14:09:22Z</time>
      </trkpt>
      <trkpt lat="48.59838" lon="7.10778">
        <ele>455.2</ele>
        <time>2023-10-14T14:09:34Z</time>
      </trkpt>
      <trkpt lat="48.59829" lon="7.10782">
        <ele>454.7</ele>
        <time>2023-10-14T14:10:09Z</time>
      </trkpt>
      <trkpt lat="48.59831" lon="7.10786">
        <ele>454.5</ele>
        <time>2023-10-14T14:10:43Z</time>
      </trkpt>
      <trkpt lat="48.59819" lon="7.10775">
        <ele>453.8</ele>
        <time>2023-10-14T14:11:06Z</time>
      </trkpt>
      <trkpt lat="48.59806" lon="7.10757">
        <ele>452.8</ele>
        <time>2023-10-14T14:11:35Z</time>
      </trkpt>
      <trkpt lat="48.59802" lon="7.10749">
        <ele>452.4</ele>
        <time>2023-10-14T14:11:44Z</time>
      </trkpt>
      <trkpt lat="48.59798" lon="7.10741">
        <ele>452.1</ele>
        <time>2023-10-14T14:11:51Z</time>
      </trkpt>
      <trkpt lat="48.59787" lon="7.10723">
        <ele>451.2</ele>
        <time>2023-10-14T14:12:12Z</time>
      </trkpt>
      <trkpt lat="48.59772" lon="7.10705">
        <ele>450.2</ele>
        <time>2023-10-14T14:12:27Z</time>
      </trkpt>
      <trkpt lat="48.5977" lon="7.10677">
        <ele>449.2</ele>
        <time>2023-10-14T14:12:42Z</time>
      </trkpt>
      <trkpt lat="48.59772" lon="7.10649">
        <ele>448.2</ele>
        <time>2023-10-14T14:12:54Z</time>
      </trkpt>
      <trkpt lat="48.59771" lon="7.10646">
        <ele>448.1</ele>
        <time>2023-10-14T14:12:55Z</time>
      </trkpt>
      <trkpt lat="48.59765" lon="7.1062">
        <ele>447.1</ele>
        <time>2023-10-14T14:13:08Z</time>
      </trkpt>
      <trkpt lat="48.59762" lon="7.10601">
        <ele>446.4</ele>
        <time>2023-10-14T14:13:19Z</time>
      </trkpt>
      <trkpt lat="48.59762" lon="7.10589">
        <ele>446</ele>
        <time>2023-10-14T14:13:26Z</time>
      </trkpt>
      <trkpt lat="48.5976" lon="7.10579">
        <ele>445.6</ele>
        <time>2023-10-14T14:13:31Z</time>
      </trkpt>
      <trkpt lat="48.59757" lon="7.10568">
        <ele>445.2</ele>
        <time>2023-10-14T14:13:36Z</time>
      </trkpt>
      <trkpt lat="48.59761" lon="7.10559">
        <ele>444.8</ele>
        <time>2023-10-14T14:13:43Z</time>
      </trkpt>
      <trkpt lat="48.59767" lon="7.10552">
        <ele>444.3</ele>
        <time>2023-10-14T14:14:00Z</time>
      </trkpt>
      <trkpt lat="48.59768" lon="7.10551">
        <ele>444.3</ele>
        <time>2023-10-14T14:14:04Z</time>
      </trkpt>
      <trkpt lat="48.59769" lon="7.10548">
        <ele>444.2</ele>
        <time>2023-10-14T14:14:32Z</time>
      </trkpt>
      <trkpt lat="48.59779" lon="7.10553">
        <ele>444.7</ele>
        <time>2023-10-14T14:14:43Z</time>
      </trkpt>
      <trkpt lat="48.5979" lon="7.10575">
        <ele>445.9</ele>
        <time>2023-10-14T14:14:57Z</time>
      </trkpt>
      <trkpt lat="48.59796" lon="7.10578">
        <ele>446.3</ele>
        <time>2023-10-14T14:15:01Z</time>
      </trkpt>
      <trkpt lat="48.59815" lon="7.10592">
        <ele>447.8</ele>
        <time>2023-10-14T14:15:11Z</time>
      </trkpt>
      <trkpt lat="48.59832" lon="7.1061">
        <ele>449.1</ele>
        <time>2023-10-14T14:15:19Z</time>
      </trkpt>
      <trkpt lat="48.59837" lon="7.10638">
        <ele>450.4</ele>
        <time>2023-10-14T14:15:29Z</time>
      </trkpt>
      <trkpt lat="48.59843" lon="7.10666">
        <ele>451.7</ele>
        <time>2023-10-14T14:15:39Z</time>
      </trkpt>
      <trkpt lat="48.59849" lon="7.10694">
        <ele>453.1</ele>
        <time>2023-10-14T14:15:50Z</time>
      </trkpt>
      <trkpt lat="48.59858" lon="7.10718">
        <ele>454.3</ele>
        <time>2023-10-14T14:16:01Z</time>
      </trkpt>
      <trkpt lat="48.59864" lon="7.10745">
        <ele>455.6</ele>
        <time>2023-10-14T14:16:11Z</time>
      </trkpt>
      <trkpt lat="48.59871" lon="7.10772">
        <ele>456.8</ele>
        <time>2023-10-14T14:16:23Z</time>
      </trkpt>
      <trkpt lat="48.59883" lon="7.10796">
        <ele>458.2</ele>
        <time>2023-10-14T14:16:34Z</time>
      </trkpt>
      <trkpt lat="48.59897" lon="7.10818">
        <ele>459.6</ele>
        <time>2023-10-14T14:16:43Z</time>
      </trkpt>
      <trkpt lat="48.59909" lon="7.10839">
        <ele>460.8</ele>
        <time>2023-10-14T14:16:55Z</time>
      </trkpt>
      <trkpt lat="48.59924" lon="7.10855">
        <ele>462</ele>
        <time>2023-10-14T14:17:06Z</time>
      </trkpt>
      <trkpt lat="48.59941" lon="7.10867">
        <ele>463.3</ele>
        <time>2023-10-14T14:17:16Z</time>
      </trkpt>
      <trkpt lat="48.59958" lon="7.10871">
        <ele>465.1</ele>
        <time>2023-10-14T14:17:25Z</time>
      </trkpt>
      <trkpt lat="48.59978" lon="7.10873">
        <ele>465.3</ele>
        <time>2023-10-14T14:17:35Z</time>
      </trkpt>
      <trkpt lat="48.59996" lon="7.10878">
        <ele>467.4</ele>
        <time>2023-10-14T14:17:46Z</time>
      </trkpt>
      <trkpt lat="48.60004" lon="7.10881">
        <ele>469.7</ele>
        <time>2023-10-14T14:17:52Z</time>
      </trkpt>
      <trkpt lat="48.60015" lon="7.1088">
        <ele>471.3</ele>
        <time>2023-10-14T14:18:24Z</time>
      </trkpt>
      <trkpt lat="48.60032" lon="7.1087">
        <ele>471</ele>
        <time>2023-10-14T14:18:35Z</time>
      </trkpt>
      <trkpt lat="48.60048" lon="7.10858">
        <ele>472.6</ele>
        <time>2023-10-14T14:18:43Z</time>
      </trkpt>
      <trkpt lat="48.60056" lon="7.10854">
        <ele>472.9</ele>
        <time>2023-10-14T14:18:51Z</time>
      </trkpt>
      <trkpt lat="48.60071" lon="7.10854">
        <ele>473.5</ele>
        <time>2023-10-14T14:19:04Z</time>
      </trkpt>
      <trkpt lat="48.60071" lon="7.10844">
        <ele>473.8</ele>
        <time>2023-10-14T14:19:08Z</time>
      </trkpt>
      <trkpt lat="48.60057" lon="7.10824">
        <ele>474.6</ele>
        <time>2023-10-14T14:19:19Z</time>
      </trkpt>
      <trkpt lat="48.60052" lon="7.10815">
        <ele>474.9</ele>
        <time>2023-10-14T14:19:25Z</time>
      </trkpt>
      <trkpt lat="48.60054" lon="7.10814">
        <ele>475</ele>
        <time>2023-10-14T14:19:51Z</time>
      </trkpt>
      <trkpt lat="48.60055" lon="7.10817">
        <ele>475.1</ele>
        <time>2023-10-14T14:19:52Z</time>
      </trkpt>
      <trkpt lat="48.6007" lon="7.10834">
        <ele>475.8</ele>
        <time>2023-10-14T14:20:13Z</time>
      </trkpt>
      <trkpt lat="48.60086" lon="7.10849">
        <ele>476.6</ele>
        <time>2023-10-14T14:20:28Z</time>
      </trkpt>
      <trkpt lat="48.60103" lon="7.10861">
        <ele>477.3</ele>
        <time>2023-10-14T14:20:40Z</time>
      </trkpt>
      <trkpt lat="48.60117" lon="7.10844">
        <ele>478.5</ele>
        <time>2023-10-14T14:20:51Z</time>
      </trkpt>
      <trkpt lat="48.60124" lon="7.10818">
        <ele>480</ele>
        <time>2023-10-14T14:21:04Z</time>
      </trkpt>
      <trkpt lat="48.60128" lon="7.10792">
        <ele>481.1</ele>
        <time>2023-10-14T14:21:14Z</time>
      </trkpt>
      <trkpt lat="48.60133" lon="7.10765">
        <ele>481.3</ele>
        <time>2023-10-14T14:21:23Z</time>
      </trkpt>
      <trkpt lat="48.6014" lon="7.10747">
        <ele>481.1</ele>
        <time>2023-10-14T14:23:11Z</time>
      </trkpt>
      <trkpt lat="48.60138" lon="7.10744">
        <ele>480.5</ele>
        <time>2023-10-14T14:24:18Z</time>
      </trkpt>
      <trkpt lat="48.60153" lon="7.10753">
        <ele>478.2</ele>
        <time>2023-10-14T14:32:36Z</time>
      </trkpt>
      <trkpt lat="48.60164" lon="7.1077">
        <ele>475.9</ele>
        <time>2023-10-14T14:32:49Z</time>
      </trkpt>
      <trkpt lat="48.60175" lon="7.10771">
        <ele>475.4</ele>
        <time>2023-10-14T14:32:59Z</time>
      </trkpt>
      <trkpt lat="48.60162" lon="7.10776">
        <ele>476.3</ele>
        <time>2023-10-14T14:33:08Z</time>
      </trkpt>
      <trkpt lat="48.60156" lon="7.10772">
        <ele>477.1</ele>
        <time>2023-10-14T14:33:27Z</time>
      </trkpt>
      <trkpt lat="48.60155" lon="7.1077">
        <ele>477.2</ele>
        <time>2023-10-14T14:33:28Z</time>
      </trkpt>
      <trkpt lat="48.60152" lon="7.10767">
        <ele>477.6</ele>
        <time>2023-10-14T14:33:30Z</time>
      </trkpt>
      <trkpt lat="48.60147" lon="7.10758">
        <ele>478.6</ele>
        <time>2023-10-14T14:33:35Z</time>
      </trkpt>
      <trkpt lat="48.60143" lon="7.10752">
        <ele>479.3</ele>
        <time>2023-10-14T14:33:40Z</time>
      </trkpt>
      <trkpt lat="48.60141" lon="7.10748">
        <ele>479.7</ele>
        <time>2023-10-14T14:33:56Z</time>
      </trkpt>
      <trkpt lat="48.60142" lon="7.1075">
        <ele>479.9</ele>
        <time>2023-10-14T14:33:57Z</time>
      </trkpt>
      <trkpt lat="48.60159" lon="7.10767">
        <ele>476.8</ele>
        <time>2023-10-14T14:34:04Z</time>
      </trkpt>
      <trkpt lat="48.60179" lon="7.10769">
        <ele>475</ele>
        <time>2023-10-14T14:34:11Z</time>
      </trkpt>
      <trkpt lat="48.60199" lon="7.10773">
        <ele>473.6</ele>
        <time>2023-10-14T14:34:19Z</time>
      </trkpt>
      <trkpt lat="48.60217" lon="7.10773">
        <ele>472</ele>
        <time>2023-10-14T14:34:27Z</time>
      </trkpt>
      <trkpt lat="48.60235" lon="7.10762">
        <ele>470.1</ele>
        <time>2023-10-14T14:34:34Z</time>
      </trkpt>
      <trkpt lat="48.60253" lon="7.10754">
        <ele>468.4</ele>
        <time>2023-10-14T14:34:41Z</time>
      </trkpt>
      <trkpt lat="48.60273" lon="7.10756">
        <ele>466.7</ele>
        <time>2023-10-14T14:34:48Z</time>
      </trkpt>
      <trkpt lat="48.60293" lon="7.10764">
        <ele>464.9</ele>
        <time>2023-10-14T14:34:54Z</time>
      </trkpt>
      <trkpt lat="48.60314" lon="7.1076">
        <ele>462.7</ele>
        <time>2023-10-14T14:35:01Z</time>
      </trkpt>
      <trkpt lat="48.60332" lon="7.10762">
        <ele>460.9</ele>
        <time>2023-10-14T14:35:06Z</time>
      </trkpt>
      <trkpt lat="48.60351" lon="7.10768">
        <ele>459.3</ele>
        <time>2023-10-14T14:35:12Z</time>
      </trkpt>
      <trkpt lat="48.60369" lon="7.10783">
        <ele>457.8</ele>
        <time>2023-10-14T14:35:19Z</time>
      </trkpt>
      <trkpt lat="48.60384" lon="7.10804">
        <ele>456.1</ele>
        <time>2023-10-14T14:35:25Z</time>
      </trkpt>
      <trkpt lat="48.60399" lon="7.10826">
        <ele>454.2</ele>
        <time>2023-10-14T14:35:32Z</time>
      </trkpt>
      <trkpt lat="48.60414" lon="7.10846">
        <ele>452.6</ele>
        <time>2023-10-14T14:35:38Z</time>
      </trkpt>
      <trkpt lat="48.60431" lon="7.10865">
        <ele>451.1</ele>
        <time>2023-10-14T14:35:44Z</time>
      </trkpt>
      <trkpt lat="48.60447" lon="7.10881">
        <ele>449.6</ele>
        <time>2023-10-14T14:35:49Z</time>
      </trkpt>
      <trkpt lat="48.60463" lon="7.10901">
        <ele>448</ele>
        <time>2023-10-14T14:35:55Z</time>
      </trkpt>
      <trkpt lat="48.60477" lon="7.1092">
        <ele>446.8</ele>
        <time>2023-10-14T14:36:02Z</time>
      </trkpt>
      <trkpt lat="48.60493" lon="7.10937">
        <ele>446</ele>
        <time>2023-10-14T14:36:09Z</time>
      </trkpt>
      <trkpt lat="48.60512" lon="7.10938">
        <ele>445.3</ele>
        <time>2023-10-14T14:36:16Z</time>
      </trkpt>
      <trkpt lat="48.6053" lon="7.10926">
        <ele>444.5</ele>
        <time>2023-10-14T14:36:22Z</time>
      </trkpt>
      <trkpt lat="48.60546" lon="7.10913">
        <ele>444</ele>
        <time>2023-10-14T14:36:28Z</time>
      </trkpt>
      <trkpt lat="48.60563" lon="7.10899">
        <ele>443.9</ele>
        <time>2023-10-14T14:36:34Z</time>
      </trkpt>
      <trkpt lat="48.6058" lon="7.10882">
        <ele>444</ele>
        <time>2023-10-14T14:36:41Z</time>
      </trkpt>
      <trkpt lat="48.60595" lon="7.10864">
        <ele>444.2</ele>
        <time>2023-10-14T14:36:48Z</time>
      </trkpt>
      <trkpt lat="48.6061" lon="7.10849">
        <ele>444.6</ele>
        <time>2023-10-14T14:36:56Z</time>
      </trkpt>
      <trkpt lat="48.60616" lon="7.10844">
        <ele>444.8</ele>
        <time>2023-10-14T14:37:00Z</time>
      </trkpt>
    </trkseg>
  </trk>
</gpx>